<?xml version='1.0' encoding='UTF-8'?><gpx version="1.1" creator="JPX - https://github.com/jenetics/jpx" xmlns="http://www.topografix.com/GPX/1/1"><trk><trkseg><trkpt lat="39.36092885115364" lon="16.03271873545337"><ele>16.0</ele><time>2026-03-27T16:22:13.999Z</time></trkpt><trkpt lat="39.360897003460224" lon="16.032793050576622"><ele>15.999999999999998</ele><time>2026-03-27T16:22:14.999Z</time></trkpt><trkpt lat="39.36086459194845" lon="16.032868681335604"><ele>16.0</ele><time>2026-03-27T16:22:15.999Z</time></trkpt><trkpt lat="39.36083085209781" lon="16.032947411808276"><ele>16.0</ele><time>2026-03-27T16:22:16.999Z</time></trkpt><trkpt lat="39.36079777981692" lon="16.033024584305597"><ele>15.999999999999998</ele><time>2026-03-27T16:22:17.999Z</time></trkpt><trkpt lat="39.3607711277573" lon="16.033114436638616"><ele>16.0</ele><time>2026-03-27T16:22:18.999Z</time></trkpt><trkpt lat="39.36073358835168" lon="16.033200432970276"><ele>16.0</ele><time>2026-03-27T16:22:19.999Z</time></trkpt><trkpt lat="39.36070171592192" lon="16.03328457850651"><ele>15.333333333333332</ele><time>2026-03-27T16:22:20.999Z</time></trkpt><trkpt lat="39.360663963137355" lon="16.0333699605685"><ele>14.666666666666666</ele><time>2026-03-27T16:22:21.999Z</time></trkpt><trkpt lat="39.36063034271991" lon="16.033447680388658"><ele>14.0</ele><time>2026-03-27T16:22:22.999Z</time></trkpt><trkpt lat="39.36058233055753" lon="16.03357040447477"><ele>13.333333333333332</ele><time>2026-03-27T16:22:24.999Z</time></trkpt><trkpt lat="39.36053837747731" lon="16.03364085962716"><ele>12.666666666666666</ele><time>2026-03-27T16:22:26.999Z</time></trkpt><trkpt lat="39.36043079855696" lon="16.03360051308676"><ele>12.0</ele><time>2026-03-27T16:22:30.999Z</time></trkpt><trkpt lat="39.36035518922955" lon="16.033572275555613"><ele>12.0</ele><time>2026-03-27T16:22:32.999Z</time></trkpt><trkpt lat="39.36038222612346" lon="16.033400600038043"><ele>12.0</ele><time>2026-03-27T16:22:35.999Z</time></trkpt><trkpt lat="39.36043748466115" lon="16.033279276275284"><ele>12.0</ele><time>2026-03-27T16:22:37.999Z</time></trkpt><trkpt lat="39.3604694837326" lon="16.03320311617998"><ele>12.0</ele><time>2026-03-27T16:22:38.999Z</time></trkpt><trkpt lat="39.36050231606857" lon="16.033117694816376"><ele>12.0</ele><time>2026-03-27T16:22:39.999Z</time></trkpt><trkpt lat="39.360540988261306" lon="16.033022326664714"><ele>11.833333333333334</ele><time>2026-03-27T16:22:40.999Z</time></trkpt><trkpt lat="39.36057798974452" lon="16.032930322834936"><ele>11.666666666666666</ele><time>2026-03-27T16:22:41.999Z</time></trkpt><trkpt lat="39.360617540605034" lon="16.032832538317948"><ele>11.5</ele><time>2026-03-27T16:22:42.999Z</time></trkpt><trkpt lat="39.360655925047396" lon="16.03273342621666"><ele>11.333333333333332</ele><time>2026-03-27T16:22:43.999Z</time></trkpt><trkpt lat="39.36070120582297" lon="16.032640577093122"><ele>11.166666666666666</ele><time>2026-03-27T16:22:44.999Z</time></trkpt><trkpt lat="39.36074453344847" lon="16.03255016331028"><ele>11.0</ele><time>2026-03-27T16:22:45.999Z</time></trkpt><trkpt lat="39.36078718975468" lon="16.032462681184384"><ele>11.0</ele><time>2026-03-27T16:22:46.999Z</time></trkpt><trkpt lat="39.360837981155164" lon="16.03238077588567"><ele>11.0</ele><time>2026-03-27T16:22:47.999Z</time></trkpt><trkpt lat="39.36090184624698" lon="16.03230825131319"><ele>11.0</ele><time>2026-03-27T16:22:48.999Z</time></trkpt><trkpt lat="39.36096875792379" lon="16.032238030648838"><ele>11.0</ele><time>2026-03-27T16:22:49.999Z</time></trkpt><trkpt lat="39.36103123669507" lon="16.032174781562706"><ele>11.0</ele><time>2026-03-27T16:22:50.999Z</time></trkpt><trkpt lat="39.361095055840515" lon="16.0321130871212"><ele>11.0</ele><time>2026-03-27T16:22:51.999Z</time></trkpt><trkpt lat="39.36116349323857" lon="16.03205993154178"><ele>11.0</ele><time>2026-03-27T16:22:52.999Z</time></trkpt><trkpt lat="39.361233622086466" lon="16.032007660662508"><ele>11.0</ele><time>2026-03-27T16:22:53.999Z</time></trkpt><trkpt lat="39.36130186649351" lon="16.031953355403783"><ele>11.0</ele><time>2026-03-27T16:22:54.999Z</time></trkpt><trkpt lat="39.361370990936024" lon="16.031896787606208"><ele>11.0</ele><time>2026-03-27T16:22:55.999Z</time></trkpt><trkpt lat="39.361441364852155" lon="16.03184801077439"><ele>11.0</ele><time>2026-03-27T16:22:56.999Z</time></trkpt><trkpt lat="39.361512196411624" lon="16.031794795977554"><ele>11.0</ele><time>2026-03-27T16:22:57.999Z</time></trkpt><trkpt lat="39.36157630534697" lon="16.03173556868636"><ele>11.0</ele><time>2026-03-27T16:22:58.999Z</time></trkpt><trkpt lat="39.36163947965857" lon="16.031669821621964"><ele>11.0</ele><time>2026-03-27T16:22:59.999Z</time></trkpt><trkpt lat="39.361699640221964" lon="16.031599598075335"><ele>11.0</ele><time>2026-03-27T16:23:00.999Z</time></trkpt><trkpt lat="39.36176739252776" lon="16.0315293988861"><ele>11.0</ele><time>2026-03-27T16:23:01.999Z</time></trkpt><trkpt lat="39.3618398144953" lon="16.03144962950137"><ele>11.0</ele><time>2026-03-27T16:23:02.999Z</time></trkpt><trkpt lat="39.36191697607278" lon="16.031363205282364"><ele>11.0</ele><time>2026-03-27T16:23:03.999Z</time></trkpt><trkpt lat="39.36199332959468" lon="16.031285016438716"><ele>11.0</ele><time>2026-03-27T16:23:04.999Z</time></trkpt><trkpt lat="39.36207203264432" lon="16.031215752219364"><ele>11.0</ele><time>2026-03-27T16:23:05.999Z</time></trkpt><trkpt lat="39.36215151044926" lon="16.03114946144251"><ele>11.0</ele><time>2026-03-27T16:23:06.999Z</time></trkpt><trkpt lat="39.36223357845607" lon="16.031090130429064"><ele>11.0</ele><time>2026-03-27T16:23:07.999Z</time></trkpt><trkpt lat="39.36231587102659" lon="16.031041312569997"><ele>11.0</ele><time>2026-03-27T16:23:08.999Z</time></trkpt><trkpt lat="39.3624018210475" lon="16.030997960394597"><ele>10.8</ele><time>2026-03-27T16:23:09.999Z</time></trkpt><trkpt lat="39.362487344695666" lon="16.030948635710423"><ele>10.600000000000001</ele><time>2026-03-27T16:23:10.999Z</time></trkpt><trkpt lat="39.362571758474786" lon="16.030901799444354"><ele>10.4</ele><time>2026-03-27T16:23:11.999Z</time></trkpt><trkpt lat="39.36265378940662" lon="16.03085356130368"><ele>10.2</ele><time>2026-03-27T16:23:12.999Z</time></trkpt><trkpt lat="39.362733336998964" lon="16.03080756700874"><ele>10.0</ele><time>2026-03-27T16:23:13.999Z</time></trkpt><trkpt lat="39.36281330291063" lon="16.0307610439076"><ele>10.0</ele><time>2026-03-27T16:23:14.999Z</time></trkpt><trkpt lat="39.362892643625834" lon="16.030716849855086"><ele>10.0</ele><time>2026-03-27T16:23:15.999Z</time></trkpt><trkpt lat="39.362967559833436" lon="16.030673538159615"><ele>10.0</ele><time>2026-03-27T16:23:16.999Z</time></trkpt><trkpt lat="39.36304014631296" lon="16.030627312031047"><ele>10.0</ele><time>2026-03-27T16:23:17.999Z</time></trkpt><trkpt lat="39.36310421251751" lon="16.030588521841313"><ele>10.0</ele><time>2026-03-27T16:23:18.999Z</time></trkpt><trkpt lat="39.36316800358889" lon="16.030552010422568"><ele>10.0</ele><time>2026-03-27T16:23:24.999Z</time></trkpt><trkpt lat="39.36323513257723" lon="16.030510473520653"><ele>10.166666666666668</ele><time>2026-03-27T16:23:26.998Z</time></trkpt><trkpt lat="39.36330433494736" lon="16.030441903366825"><ele>10.333333333333334</ele><time>2026-03-27T16:23:28.998Z</time></trkpt><trkpt lat="39.363390713113304" lon="16.030370721865655"><ele>10.5</ele><time>2026-03-27T16:23:30.998Z</time></trkpt><trkpt lat="39.3634872276266" lon="16.03030417543304"><ele>10.666666666666666</ele><time>2026-03-27T16:23:32.998Z</time></trkpt><trkpt lat="39.36354487822369" lon="16.030265086971454"><ele>10.833333333333332</ele><time>2026-03-27T16:23:33.998Z</time></trkpt><trkpt lat="39.36360625251627" lon="16.030226429465248"><ele>11.0</ele><time>2026-03-27T16:23:34.998Z</time></trkpt><trkpt lat="39.36367445653867" lon="16.030188210171264"><ele>11.0</ele><time>2026-03-27T16:23:35.998Z</time></trkpt><trkpt lat="39.36374314734031" lon="16.030150505807008"><ele>11.0</ele><time>2026-03-27T16:23:36.998Z</time></trkpt><trkpt lat="39.363820859471886" lon="16.030127892009613"><ele>11.0</ele><time>2026-03-27T16:23:37.999Z</time></trkpt><trkpt lat="39.36389877246652" lon="16.030107312362873"><ele>11.0</ele><time>2026-03-27T16:23:38.999Z</time></trkpt><trkpt lat="39.36397676220784" lon="16.030096436301648"><ele>11.0</ele><time>2026-03-27T16:23:39.999Z</time></trkpt><trkpt lat="39.364053077735164" lon="16.030073317200664"><ele>11.0</ele><time>2026-03-27T16:23:40.999Z</time></trkpt><trkpt lat="39.36412908390114" lon="16.030053967731508"><ele>11.0</ele><time>2026-03-27T16:23:41.999Z</time></trkpt><trkpt lat="39.364199294416025" lon="16.030025320616566"><ele>11.0</ele><time>2026-03-27T16:23:42.999Z</time></trkpt><trkpt lat="39.364282196821286" lon="16.029997371200707"><ele>11.0</ele><time>2026-03-27T16:23:43.999Z</time></trkpt><trkpt lat="39.364362398951435" lon="16.029976670398252"><ele>11.0</ele><time>2026-03-27T16:23:44.999Z</time></trkpt><trkpt lat="39.364436024548496" lon="16.029952659239438"><ele>11.0</ele><time>2026-03-27T16:23:45.999Z</time></trkpt><trkpt lat="39.36450720060276" lon="16.02992847919391"><ele>11.0</ele><time>2026-03-27T16:23:46.999Z</time></trkpt><trkpt lat="39.364571317090586" lon="16.029905005567404"><ele>10.666666666666666</ele><time>2026-03-27T16:23:47.999Z</time></trkpt><trkpt lat="39.364655242665776" lon="16.029881362347947"><ele>10.333333333333332</ele><time>2026-03-27T16:23:49.999Z</time></trkpt><trkpt lat="39.364715421169976" lon="16.02984902473594"><ele>10.0</ele><time>2026-03-27T16:23:58.999Z</time></trkpt><trkpt lat="39.36478329250323" lon="16.02982599413641"><ele>9.666666666666666</ele><time>2026-03-27T16:24:00.999Z</time></trkpt><trkpt lat="39.3648852697811" lon="16.029808070824537"><ele>9.333333333333334</ele><time>2026-03-27T16:24:02.999Z</time></trkpt><trkpt lat="39.36499156195165" lon="16.029758166792156"><ele>9.0</ele><time>2026-03-27T16:24:04.999Z</time></trkpt><trkpt lat="39.365055569234265" lon="16.029733649259395"><ele>9.000000000000002</ele><time>2026-03-27T16:24:05.999Z</time></trkpt><trkpt lat="39.36512004994405" lon="16.029711054992426"><ele>9.0</ele><time>2026-03-27T16:24:06.999Z</time></trkpt><trkpt lat="39.365187361624486" lon="16.029689685964694"><ele>9.0</ele><time>2026-03-27T16:24:07.999Z</time></trkpt><trkpt lat="39.36525734397415" lon="16.029666759482904"><ele>9.0</ele><time>2026-03-27T16:24:08.999Z</time></trkpt><trkpt lat="39.365330497514734" lon="16.029648589812492"><ele>9.0</ele><time>2026-03-27T16:24:09.999Z</time></trkpt><trkpt lat="39.36540830150206" lon="16.029625620037542"><ele>9.000000000000002</ele><time>2026-03-27T16:24:10.999Z</time></trkpt><trkpt lat="39.365480656159136" lon="16.029605510274948"><ele>9.0</ele><time>2026-03-27T16:24:11.999Z</time></trkpt><trkpt lat="39.3655446024933" lon="16.02958829815647"><ele>9.5</ele><time>2026-03-27T16:24:12.999Z</time></trkpt><trkpt lat="39.36560447209549" lon="16.029559648081634"><ele>10.0</ele><time>2026-03-27T16:24:13.999Z</time></trkpt><trkpt lat="39.36571770950645" lon="16.029526577159682"><ele>10.5</ele><time>2026-03-27T16:24:15.999Z</time></trkpt><trkpt lat="39.365784232297415" lon="16.029512496695087"><ele>11.0</ele><time>2026-03-27T16:24:16.999Z</time></trkpt><trkpt lat="39.36585950202685" lon="16.029491008890417"><ele>11.5</ele><time>2026-03-27T16:24:17.999Z</time></trkpt><trkpt lat="39.36593558170353" lon="16.02947402652013"><ele>12.0</ele><time>2026-03-27T16:24:18.999Z</time></trkpt><trkpt lat="39.366012861824146" lon="16.02945529029727"><ele>11.999999999999998</ele><time>2026-03-27T16:24:19.999Z</time></trkpt><trkpt lat="39.36608692504923" lon="16.02943275752965"><ele>12.0</ele><time>2026-03-27T16:24:20.999Z</time></trkpt><trkpt lat="39.36615946401814" lon="16.02941931880056"><ele>12.0</ele><time>2026-03-27T16:24:21.999Z</time></trkpt><trkpt lat="39.36623237055638" lon="16.029402039620482"><ele>12.0</ele><time>2026-03-27T16:24:22.999Z</time></trkpt><trkpt lat="39.36630404544127" lon="16.029386363922715"><ele>12.0</ele><time>2026-03-27T16:24:23.999Z</time></trkpt><trkpt lat="39.36637666743122" lon="16.02936106148008"><ele>11.999999999999998</ele><time>2026-03-27T16:24:24.999Z</time></trkpt><trkpt lat="39.36644339653051" lon="16.029341868517907"><ele>12.0</ele><time>2026-03-27T16:24:25.999Z</time></trkpt><trkpt lat="39.36650664270073" lon="16.029326937638725"><ele>12.0</ele><time>2026-03-27T16:24:26.999Z</time></trkpt><trkpt lat="39.36661796111363" lon="16.029298461621227"><ele>12.0</ele><time>2026-03-27T16:24:28.999Z</time></trkpt><trkpt lat="39.3666800114179" lon="16.029274287980304"><ele>12.0</ele><time>2026-03-27T16:24:30.999Z</time></trkpt><trkpt lat="39.36677872497871" lon="16.029236179234054"><ele>12.0</ele><time>2026-03-27T16:24:41.999Z</time></trkpt><trkpt lat="39.36686322872399" lon="16.029222463710024"><ele>12.0</ele><time>2026-03-27T16:24:43.999Z</time></trkpt><trkpt lat="39.36696504831272" lon="16.029181547635936"><ele>11.999999999999998</ele><time>2026-03-27T16:24:45.999Z</time></trkpt><trkpt lat="39.36702415432152" lon="16.02915129713806"><ele>12.0</ele><time>2026-03-27T16:24:46.999Z</time></trkpt><trkpt lat="39.367087997139485" lon="16.02912107502034"><ele>12.0</ele><time>2026-03-27T16:24:47.999Z</time></trkpt><trkpt lat="39.36715185276923" lon="16.02909301812189"><ele>12.0</ele><time>2026-03-27T16:24:48.999Z</time></trkpt><trkpt lat="39.36721588270387" lon="16.02906646810516"><ele>12.0</ele><time>2026-03-27T16:24:49.999Z</time></trkpt><trkpt lat="39.36728044789126" lon="16.029040630534706"><ele>11.999999999999998</ele><time>2026-03-27T16:24:50.999Z</time></trkpt><trkpt lat="39.367344142192586" lon="16.029013305017582"><ele>12.0</ele><time>2026-03-27T16:24:51.999Z</time></trkpt><trkpt lat="39.36740931463974" lon="16.028985694054473"><ele>11.333333333333334</ele><time>2026-03-27T16:24:52.999Z</time></trkpt><trkpt lat="39.367473900573486" lon="16.028957469856216"><ele>10.666666666666666</ele><time>2026-03-27T16:24:53.999Z</time></trkpt><trkpt lat="39.36753842462676" lon="16.028930588800545"><ele>10.0</ele><time>2026-03-27T16:24:54.999Z</time></trkpt><trkpt lat="39.36760244535195" lon="16.028907835145663"><ele>9.333333333333332</ele><time>2026-03-27T16:24:55.999Z</time></trkpt><trkpt lat="39.36772268648342" lon="16.02887132454229"><ele>8.666666666666666</ele><time>2026-03-27T16:24:57.999Z</time></trkpt><trkpt lat="39.3678401449674" lon="16.028822838726647"><ele>8.0</ele><time>2026-03-27T16:24:59.999Z</time></trkpt><trkpt lat="39.36790432106144" lon="16.028798649976665"><ele>7.999999999999999</ele><time>2026-03-27T16:25:00.999Z</time></trkpt><trkpt lat="39.36797421517529" lon="16.028774495506255"><ele>8.0</ele><time>2026-03-27T16:25:01.999Z</time></trkpt><trkpt lat="39.36804791279964" lon="16.028748419298466"><ele>8.0</ele><time>2026-03-27T16:25:02.999Z</time></trkpt><trkpt lat="39.36812271952421" lon="16.028724247647705"><ele>8.0</ele><time>2026-03-27T16:25:03.999Z</time></trkpt><trkpt lat="39.36819279509324" lon="16.028704588152774"><ele>7.999999999999999</ele><time>2026-03-27T16:25:04.999Z</time></trkpt><trkpt lat="39.36829873722788" lon="16.02868019902959"><ele>8.0</ele><time>2026-03-27T16:25:06.999Z</time></trkpt><trkpt lat="39.36839618677139" lon="16.02865361981308"><ele>8.0</ele><time>2026-03-27T16:25:08.999Z</time></trkpt><trkpt lat="39.368539694014636" lon="16.02861939096531"><ele>8.0</ele><time>2026-03-27T16:25:10.999Z</time></trkpt><trkpt lat="39.3686189477087" lon="16.02860112729263"><ele>8.0</ele><time>2026-03-27T16:25:11.999Z</time></trkpt><trkpt lat="39.36869581781889" lon="16.028580550210776"><ele>8.0</ele><time>2026-03-27T16:25:12.999Z</time></trkpt><trkpt lat="39.368777314900896" lon="16.028558580350573"><ele>8.0</ele><time>2026-03-27T16:25:13.999Z</time></trkpt><trkpt lat="39.36886439723862" lon="16.028532415805802"><ele>8.4</ele><time>2026-03-27T16:25:14.999Z</time></trkpt><trkpt lat="39.36895020124792" lon="16.028506215898197"><ele>8.8</ele><time>2026-03-27T16:25:15.999Z</time></trkpt><trkpt lat="39.36904980082506" lon="16.028480739621436"><ele>9.2</ele><time>2026-03-27T16:25:16.999Z</time></trkpt><trkpt lat="39.36914766723433" lon="16.02845826565637"><ele>9.6</ele><time>2026-03-27T16:25:17.999Z</time></trkpt><trkpt lat="39.3692424153773" lon="16.028431981952593"><ele>10.0</ele><time>2026-03-27T16:25:18.999Z</time></trkpt><trkpt lat="39.36933680813966" lon="16.028408294250635"><ele>10.0</ele><time>2026-03-27T16:25:19.999Z</time></trkpt><trkpt lat="39.36943507833007" lon="16.0283804517131"><ele>10.0</ele><time>2026-03-27T16:25:20.999Z</time></trkpt><trkpt lat="39.36953531931547" lon="16.028355836873217"><ele>10.0</ele><time>2026-03-27T16:25:21.999Z</time></trkpt><trkpt lat="39.36963450424695" lon="16.028325154105755"><ele>10.0</ele><time>2026-03-27T16:25:22.999Z</time></trkpt><trkpt lat="39.36973276668402" lon="16.028297240226795"><ele>10.0</ele><time>2026-03-27T16:25:23.999Z</time></trkpt><trkpt lat="39.36982764314062" lon="16.028267588583038"><ele>10.166666666666668</ele><time>2026-03-27T16:25:24.999Z</time></trkpt><trkpt lat="39.36991783628298" lon="16.028248641654738"><ele>10.333333333333334</ele><time>2026-03-27T16:25:25.999Z</time></trkpt><trkpt lat="39.370001862645566" lon="16.028224955889048"><ele>10.5</ele><time>2026-03-27T16:25:26.999Z</time></trkpt><trkpt lat="39.37008718507931" lon="16.028202428499245"><ele>10.666666666666666</ele><time>2026-03-27T16:25:27.999Z</time></trkpt><trkpt lat="39.370174804252414" lon="16.028179403385856"><ele>10.833333333333332</ele><time>2026-03-27T16:25:28.999Z</time></trkpt><trkpt lat="39.37026574319871" lon="16.02815117348392"><ele>11.0</ele><time>2026-03-27T16:25:29.999Z</time></trkpt><trkpt lat="39.37035560311503" lon="16.028122275033702"><ele>11.0</ele><time>2026-03-27T16:25:30.998Z</time></trkpt><trkpt lat="39.370440486517424" lon="16.028093655674738"><ele>11.0</ele><time>2026-03-27T16:25:31.998Z</time></trkpt><trkpt lat="39.37052841629981" lon="16.028064416939852"><ele>11.0</ele><time>2026-03-27T16:25:32.998Z</time></trkpt><trkpt lat="39.370617488228945" lon="16.028036813614804"><ele>11.0</ele><time>2026-03-27T16:25:33.998Z</time></trkpt><trkpt lat="39.37070525806868" lon="16.02800885154485"><ele>11.0</ele><time>2026-03-27T16:25:34.998Z</time></trkpt><trkpt lat="39.37079240752205" lon="16.027983623718274"><ele>10.333333333333332</ele><time>2026-03-27T16:25:35.998Z</time></trkpt><trkpt lat="39.370877350806666" lon="16.027956195760606"><ele>9.666666666666666</ele><time>2026-03-27T16:25:36.998Z</time></trkpt><trkpt lat="39.3709618494204" lon="16.02792902371667"><ele>9.0</ele><time>2026-03-27T16:25:37.998Z</time></trkpt><trkpt lat="39.37104512917232" lon="16.027903446866322"><ele>8.333333333333334</ele><time>2026-03-27T16:25:38.998Z</time></trkpt><trkpt lat="39.371125274117006" lon="16.027879156901037"><ele>7.666666666666667</ele><time>2026-03-27T16:25:39.998Z</time></trkpt><trkpt lat="39.37120253252988" lon="16.027854705744023"><ele>7.0</ele><time>2026-03-27T16:25:40.998Z</time></trkpt><trkpt lat="39.37127685461952" lon="16.027831363369803"><ele>7.000000000000001</ele><time>2026-03-27T16:25:41.998Z</time></trkpt><trkpt lat="39.37135344070926" lon="16.02780639077141"><ele>7.0</ele><time>2026-03-27T16:25:42.998Z</time></trkpt><trkpt lat="39.37142927309088" lon="16.027780244036823"><ele>7.0</ele><time>2026-03-27T16:25:43.999Z</time></trkpt><trkpt lat="39.37150089275058" lon="16.027755167061507"><ele>7.0</ele><time>2026-03-27T16:25:44.999Z</time></trkpt><trkpt lat="39.37157037925229" lon="16.027731106627556"><ele>7.000000000000001</ele><time>2026-03-27T16:25:45.999Z</time></trkpt><trkpt lat="39.37164498967439" lon="16.02770475612626"><ele>7.0</ele><time>2026-03-27T16:25:46.999Z</time></trkpt><trkpt lat="39.37172403641095" lon="16.02767666109689"><ele>7.199999999999999</ele><time>2026-03-27T16:25:47.999Z</time></trkpt><trkpt lat="39.37180764494153" lon="16.027646806583963"><ele>7.3999999999999995</ele><time>2026-03-27T16:25:48.999Z</time></trkpt><trkpt lat="39.371893439313716" lon="16.027616384456902"><ele>7.6000000000000005</ele><time>2026-03-27T16:25:49.999Z</time></trkpt><trkpt lat="39.37198124148638" lon="16.027586083337493"><ele>7.800000000000001</ele><time>2026-03-27T16:25:50.999Z</time></trkpt><trkpt lat="39.37207226640342" lon="16.027553870262334"><ele>8.0</ele><time>2026-03-27T16:25:51.999Z</time></trkpt><trkpt lat="39.372165141453664" lon="16.027521606461402"><ele>7.666666666666666</ele><time>2026-03-27T16:25:52.999Z</time></trkpt><trkpt lat="39.3722552162261" lon="16.0274885025114"><ele>7.333333333333333</ele><time>2026-03-27T16:25:53.999Z</time></trkpt><trkpt lat="39.372342295897404" lon="16.027457647776988"><ele>7.0</ele><time>2026-03-27T16:25:54.999Z</time></trkpt><trkpt lat="39.3724239232944" lon="16.027429678692116"><ele>6.666666666666666</ele><time>2026-03-27T16:25:55.999Z</time></trkpt><trkpt lat="39.372516382289795" lon="16.027393890801484"><ele>6.333333333333333</ele><time>2026-03-27T16:25:57.999Z</time></trkpt><trkpt lat="39.37257992167125" lon="16.027369196451627"><ele>6.0</ele><time>2026-03-27T16:26:04.999Z</time></trkpt><trkpt lat="39.372658184212945" lon="16.02734970580173"><ele>6.0</ele><time>2026-03-27T16:26:08.999Z</time></trkpt><trkpt lat="39.37274414329454" lon="16.027312938802467"><ele>6.0</ele><time>2026-03-27T16:26:10.999Z</time></trkpt><trkpt lat="39.37285690370145" lon="16.027260577964558"><ele>6.0</ele><time>2026-03-27T16:26:12.999Z</time></trkpt><trkpt lat="39.372926952069285" lon="16.027231972287684"><ele>6.0</ele><time>2026-03-27T16:26:13.999Z</time></trkpt><trkpt lat="39.373006542622186" lon="16.027206402324573"><ele>6.0</ele><time>2026-03-27T16:26:14.999Z</time></trkpt><trkpt lat="39.37309658494551" lon="16.027177509153994"><ele>6.0</ele><time>2026-03-27T16:26:15.999Z</time></trkpt><trkpt lat="39.373195396996714" lon="16.027145998181247"><ele>6.0</ele><time>2026-03-27T16:26:16.999Z</time></trkpt><trkpt lat="39.373291706824496" lon="16.027109332006766"><ele>6.0</ele><time>2026-03-27T16:26:17.999Z</time></trkpt><trkpt lat="39.373396945808395" lon="16.027068784761898"><ele>6.0</ele><time>2026-03-27T16:26:18.999Z</time></trkpt><trkpt lat="39.37351062250454" lon="16.027025414105754"><ele>6.0</ele><time>2026-03-27T16:26:19.999Z</time></trkpt><trkpt lat="39.37362428405287" lon="16.026980513874236"><ele>6.0</ele><time>2026-03-27T16:26:20.999Z</time></trkpt><trkpt lat="39.373742584849595" lon="16.026937165846583"><ele>6.0</ele><time>2026-03-27T16:26:21.999Z</time></trkpt><trkpt lat="39.37386877213927" lon="16.02689032838639"><ele>6.0</ele><time>2026-03-27T16:26:22.999Z</time></trkpt><trkpt lat="39.37400108470293" lon="16.026842532088477"><ele>6.0</ele><time>2026-03-27T16:26:23.999Z</time></trkpt><trkpt lat="39.3741299074161" lon="16.026796242845588"><ele>6.0</ele><time>2026-03-27T16:26:24.999Z</time></trkpt><trkpt lat="39.37426545351531" lon="16.026744896482402"><ele>6.0</ele><time>2026-03-27T16:26:25.999Z</time></trkpt><trkpt lat="39.37440669544845" lon="16.026691903645542"><ele>6.0</ele><time>2026-03-27T16:26:26.999Z</time></trkpt><trkpt lat="39.37455144384411" lon="16.026636646998202"><ele>6.0</ele><time>2026-03-27T16:26:27.999Z</time></trkpt><trkpt lat="39.37469798343842" lon="16.02658049441649"><ele>6.0</ele><time>2026-03-27T16:26:28.999Z</time></trkpt><trkpt lat="39.37484608490221" lon="16.02652144841845"><ele>6.0</ele><time>2026-03-27T16:26:29.999Z</time></trkpt><trkpt lat="39.37499669918743" lon="16.02646288146374"><ele>6.0</ele><time>2026-03-27T16:26:30.999Z</time></trkpt><trkpt lat="39.37515195063295" lon="16.026404406788433"><ele>6.0</ele><time>2026-03-27T16:26:31.999Z</time></trkpt><trkpt lat="39.375313364899085" lon="16.026342779986052"><ele>6.0</ele><time>2026-03-27T16:26:32.999Z</time></trkpt><trkpt lat="39.37547463393494" lon="16.026282086472378"><ele>6.0</ele><time>2026-03-27T16:26:33.999Z</time></trkpt><trkpt lat="39.37563087954754" lon="16.026223081008933"><ele>6.333333333333334</ele><time>2026-03-27T16:26:34.999Z</time></trkpt><trkpt lat="39.37578130207596" lon="16.026167411987668"><ele>6.666666666666667</ele><time>2026-03-27T16:26:35.999Z</time></trkpt><trkpt lat="39.375925603826715" lon="16.02611245197003"><ele>7.0</ele><time>2026-03-27T16:26:36.999Z</time></trkpt><trkpt lat="39.376072425417526" lon="16.02605470295921"><ele>7.0</ele><time>2026-03-27T16:26:37.999Z</time></trkpt><trkpt lat="39.37622604081622" lon="16.0259937623567"><ele>7.0</ele><time>2026-03-27T16:26:38.999Z</time></trkpt><trkpt lat="39.37639121426675" lon="16.025932329687127"><ele>7.0</ele><time>2026-03-27T16:26:39.999Z</time></trkpt><trkpt lat="39.376561828753594" lon="16.025867109063036"><ele>6.666666666666667</ele><time>2026-03-27T16:26:40.999Z</time></trkpt><trkpt lat="39.376733778725836" lon="16.02580423480476"><ele>6.333333333333334</ele><time>2026-03-27T16:26:41.999Z</time></trkpt><trkpt lat="39.3769122049846" lon="16.02573604195939"><ele>6.0</ele><time>2026-03-27T16:26:42.999Z</time></trkpt><trkpt lat="39.37709210102738" lon="16.025671321536457"><ele>6.333333333333334</ele><time>2026-03-27T16:26:43.999Z</time></trkpt><trkpt lat="39.37727192635461" lon="16.025603106898938"><ele>6.666666666666667</ele><time>2026-03-27T16:26:44.999Z</time></trkpt><trkpt lat="39.377451384806605" lon="16.02553022545689"><ele>7.0</ele><time>2026-03-27T16:26:45.999Z</time></trkpt><trkpt lat="39.3776388585487" lon="16.025457157783862"><ele>7.0</ele><time>2026-03-27T16:26:46.999Z</time></trkpt><trkpt lat="39.377837559426766" lon="16.025378705635593"><ele>7.0</ele><time>2026-03-27T16:26:47.999Z</time></trkpt><trkpt lat="39.37803617767523" lon="16.025303117456893"><ele>7.0</ele><time>2026-03-27T16:26:48.999Z</time></trkpt><trkpt lat="39.378234412667375" lon="16.02522987912427"><ele>7.0</ele><time>2026-03-27T16:26:49.999Z</time></trkpt><trkpt lat="39.37843073923633" lon="16.025154326256757"><ele>7.0</ele><time>2026-03-27T16:26:50.999Z</time></trkpt><trkpt lat="39.37862747108398" lon="16.025078935997435"><ele>7.0</ele><time>2026-03-27T16:26:51.999Z</time></trkpt><trkpt lat="39.37882646666965" lon="16.02500412481013"><ele>6.333333333333334</ele><time>2026-03-27T16:26:52.999Z</time></trkpt><trkpt lat="39.37903011824536" lon="16.024923316827635"><ele>5.666666666666667</ele><time>2026-03-27T16:26:53.999Z</time></trkpt><trkpt lat="39.37923868552479" lon="16.024839007578905"><ele>5.0</ele><time>2026-03-27T16:26:54.999Z</time></trkpt><trkpt lat="39.37944928391346" lon="16.024745670084222"><ele>5.0</ele><time>2026-03-27T16:26:55.999Z</time></trkpt><trkpt lat="39.37965967027687" lon="16.02464653342617"><ele>5.0</ele><time>2026-03-27T16:26:56.999Z</time></trkpt><trkpt lat="39.37986679257379" lon="16.024544239319326"><ele>5.0</ele><time>2026-03-27T16:26:57.999Z</time></trkpt><trkpt lat="39.380070246051524" lon="16.024441358831492"><ele>5.5</ele><time>2026-03-27T16:26:58.999Z</time></trkpt><trkpt lat="39.38027683373086" lon="16.024331510707043"><ele>6.0</ele><time>2026-03-27T16:26:59.999Z</time></trkpt><trkpt lat="39.38048912544356" lon="16.02421582053873"><ele>6.0</ele><time>2026-03-27T16:27:00.999Z</time></trkpt><trkpt lat="39.380701641658064" lon="16.024100865959852"><ele>6.0</ele><time>2026-03-27T16:27:01.999Z</time></trkpt><trkpt lat="39.38091295919668" lon="16.02398897198596"><ele>6.0</ele><time>2026-03-27T16:27:02.999Z</time></trkpt><trkpt lat="39.381124219313534" lon="16.023877694312212"><ele>6.0</ele><time>2026-03-27T16:27:03.999Z</time></trkpt><trkpt lat="39.38133493481627" lon="16.023766468887647"><ele>6.0</ele><time>2026-03-27T16:27:04.999Z</time></trkpt><trkpt lat="39.38154312691775" lon="16.023654149036915"><ele>6.0</ele><time>2026-03-27T16:27:05.999Z</time></trkpt><trkpt lat="39.38174968701307" lon="16.023544618437565"><ele>6.0</ele><time>2026-03-27T16:27:06.999Z</time></trkpt><trkpt lat="39.381954651754455" lon="16.023433283587625"><ele>6.0</ele><time>2026-03-27T16:27:07.999Z</time></trkpt><trkpt lat="39.382158605768424" lon="16.023324258521"><ele>6.0</ele><time>2026-03-27T16:27:08.999Z</time></trkpt><trkpt lat="39.38236046944715" lon="16.023212573611907"><ele>6.0</ele><time>2026-03-27T16:27:09.999Z</time></trkpt><trkpt lat="39.382563326234404" lon="16.023102974417935"><ele>6.0</ele><time>2026-03-27T16:27:10.999Z</time></trkpt><trkpt lat="39.38276742744854" lon="16.022990762884998"><ele>6.0</ele><time>2026-03-27T16:27:11.999Z</time></trkpt><trkpt lat="39.38296688474862" lon="16.02288260177944"><ele>6.0</ele><time>2026-03-27T16:27:12.999Z</time></trkpt><trkpt lat="39.38316161669799" lon="16.022776342669285"><ele>6.0</ele><time>2026-03-27T16:27:13.999Z</time></trkpt><trkpt lat="39.383351553610375" lon="16.022675065707226"><ele>6.0</ele><time>2026-03-27T16:27:14.999Z</time></trkpt><trkpt lat="39.38353669093078" lon="16.02257696856546"><ele>6.0</ele><time>2026-03-27T16:27:15.999Z</time></trkpt><trkpt lat="39.38372068292465" lon="16.022479656402435"><ele>6.666666666666666</ele><time>2026-03-27T16:27:16.999Z</time></trkpt><trkpt lat="39.383901472571644" lon="16.022384213703397"><ele>7.333333333333333</ele><time>2026-03-27T16:27:17.999Z</time></trkpt><trkpt lat="39.38407729477008" lon="16.022291348474358"><ele>8.0</ele><time>2026-03-27T16:27:18.999Z</time></trkpt><trkpt lat="39.384251590492276" lon="16.022200095997878"><ele>8.0</ele><time>2026-03-27T16:27:19.999Z</time></trkpt><trkpt lat="39.384424996962125" lon="16.02211092204605"><ele>8.0</ele><time>2026-03-27T16:27:20.999Z</time></trkpt><trkpt lat="39.38459748574204" lon="16.022022977281026"><ele>8.0</ele><time>2026-03-27T16:27:21.999Z</time></trkpt><trkpt lat="39.38476803449915" lon="16.021933481563895"><ele>9.0</ele><time>2026-03-27T16:27:22.999Z</time></trkpt><trkpt lat="39.38493365447626" lon="16.021848891259218"><ele>10.0</ele><time>2026-03-27T16:27:23.999Z</time></trkpt><trkpt lat="39.385089710358905" lon="16.02176327162477"><ele>11.0</ele><time>2026-03-27T16:27:24.999Z</time></trkpt><trkpt lat="39.38523851331401" lon="16.021678574525367"><ele>9.666666666666666</ele><time>2026-03-27T16:27:25.999Z</time></trkpt><trkpt lat="39.38538335016862" lon="16.021597447043863"><ele>8.333333333333334</ele><time>2026-03-27T16:27:26.999Z</time></trkpt><trkpt lat="39.38552375237439" lon="16.021520074828818"><ele>7.0</ele><time>2026-03-27T16:27:27.999Z</time></trkpt><trkpt lat="39.385664864472645" lon="16.021454557830218"><ele>7.0</ele><time>2026-03-27T16:27:28.999Z</time></trkpt><trkpt lat="39.385809702275445" lon="16.021408658108438"><ele>7.0</ele><time>2026-03-27T16:27:29.999Z</time></trkpt><trkpt lat="39.38595709856711" lon="16.021388226434645"><ele>7.0</ele><time>2026-03-27T16:27:30.999Z</time></trkpt><trkpt lat="39.38610170696883" lon="16.021387129627378"><ele>7.0</ele><time>2026-03-27T16:27:31.999Z</time></trkpt><trkpt lat="39.386238299481725" lon="16.021400459165168"><ele>7.25</ele><time>2026-03-27T16:27:32.999Z</time></trkpt><trkpt lat="39.386366424717316" lon="16.021422405383245"><ele>7.5</ele><time>2026-03-27T16:27:33.999Z</time></trkpt><trkpt lat="39.38648875494992" lon="16.021450391418664"><ele>7.75</ele><time>2026-03-27T16:27:34.999Z</time></trkpt><trkpt lat="39.38660672213871" lon="16.021480494527268"><ele>8.0</ele><time>2026-03-27T16:27:35.999Z</time></trkpt><trkpt lat="39.38671978485462" lon="16.021510150040704"><ele>8.0</ele><time>2026-03-27T16:27:36.999Z</time></trkpt><trkpt lat="39.38682849522723" lon="16.021538445064564"><ele>8.0</ele><time>2026-03-27T16:27:37.999Z</time></trkpt><trkpt lat="39.38693321707333" lon="16.02156572147379"><ele>8.0</ele><time>2026-03-27T16:27:38.999Z</time></trkpt><trkpt lat="39.38703226749565" lon="16.021592779597547"><ele>8.0</ele><time>2026-03-27T16:27:39.999Z</time></trkpt><trkpt lat="39.387117074954254" lon="16.02161700852611"><ele>8.0</ele><time>2026-03-27T16:27:40.999Z</time></trkpt><trkpt lat="39.38719590521497" lon="16.021631927670903"><ele>7.571428571428571</ele><time>2026-03-27T16:27:41.999Z</time></trkpt><trkpt lat="39.3872674328072" lon="16.021646440095367"><ele>7.142857142857142</ele><time>2026-03-27T16:27:42.999Z</time></trkpt><trkpt lat="39.38732936425415" lon="16.0216693568468"><ele>6.7142857142857135</ele><time>2026-03-27T16:27:43.999Z</time></trkpt><trkpt lat="39.38739523044235" lon="16.02170455466916"><ele>6.285714285714286</ele><time>2026-03-27T16:27:45.999Z</time></trkpt><trkpt lat="39.387466192761714" lon="16.021728465869007"><ele>5.857142857142858</ele><time>2026-03-27T16:27:56.999Z</time></trkpt><trkpt lat="39.38753116883999" lon="16.02174778380295"><ele>5.428571428571429</ele><time>2026-03-27T16:28:08.999Z</time></trkpt><trkpt lat="39.38761012112033" lon="16.021724753675198"><ele>5.0</ele><time>2026-03-27T16:28:10.999Z</time></trkpt><trkpt lat="39.38772970003819" lon="16.021667698077653"><ele>5.0</ele><time>2026-03-27T16:28:12.999Z</time></trkpt><trkpt lat="39.38782542567059" lon="16.021618399837774"><ele>5.0</ele><time>2026-03-27T16:28:13.999Z</time></trkpt><trkpt lat="39.38793404382523" lon="16.02155923235691"><ele>5.0</ele><time>2026-03-27T16:28:14.999Z</time></trkpt><trkpt lat="39.38804253717196" lon="16.021495536548876"><ele>5.0</ele><time>2026-03-27T16:28:15.999Z</time></trkpt><trkpt lat="39.38817036369001" lon="16.021416805478164"><ele>5.666666666666667</ele><time>2026-03-27T16:28:16.999Z</time></trkpt><trkpt lat="39.38831840860451" lon="16.021324462225557"><ele>6.333333333333334</ele><time>2026-03-27T16:28:17.999Z</time></trkpt><trkpt lat="39.38847641557118" lon="16.021224271174283"><ele>7.0</ele><time>2026-03-27T16:28:18.999Z</time></trkpt><trkpt lat="39.38863297610271" lon="16.0211221201201"><ele>7.0</ele><time>2026-03-27T16:28:19.999Z</time></trkpt><trkpt lat="39.388800673766326" lon="16.02101094259667"><ele>7.0</ele><time>2026-03-27T16:28:20.999Z</time></trkpt><trkpt lat="39.3889781683365" lon="16.02089324036997"><ele>7.0</ele><time>2026-03-27T16:28:21.999Z</time></trkpt><trkpt lat="39.38916959153599" lon="16.020766771082624"><ele>6.666666666666667</ele><time>2026-03-27T16:28:22.999Z</time></trkpt><trkpt lat="39.38936205835157" lon="16.020640419534423"><ele>6.333333333333334</ele><time>2026-03-27T16:28:23.999Z</time></trkpt><trkpt lat="39.389550658302916" lon="16.020516228362446"><ele>6.0</ele><time>2026-03-27T16:28:24.999Z</time></trkpt><trkpt lat="39.389743727043644" lon="16.020390847295687"><ele>5.666666666666667</ele><time>2026-03-27T16:28:25.999Z</time></trkpt><trkpt lat="39.38994500583269" lon="16.020260649136745"><ele>5.333333333333334</ele><time>2026-03-27T16:28:26.999Z</time></trkpt><trkpt lat="39.390144755788285" lon="16.02012955702088"><ele>5.0</ele><time>2026-03-27T16:28:27.999Z</time></trkpt><trkpt lat="39.39034118843017" lon="16.020000692839382"><ele>6.333333333333334</ele><time>2026-03-27T16:28:28.999Z</time></trkpt><trkpt lat="39.39053423047481" lon="16.019873977505423"><ele>7.666666666666667</ele><time>2026-03-27T16:28:29.999Z</time></trkpt><trkpt lat="39.390725923927484" lon="16.01974991143783"><ele>9.0</ele><time>2026-03-27T16:28:30.999Z</time></trkpt><trkpt lat="39.39091071645254" lon="16.01962917647185"><ele>9.0</ele><time>2026-03-27T16:28:31.999Z</time></trkpt><trkpt lat="39.39108952889703" lon="16.019512121244382"><ele>9.0</ele><time>2026-03-27T16:28:32.999Z</time></trkpt><trkpt lat="39.39126375755456" lon="16.01939890616888"><ele>9.0</ele><time>2026-03-27T16:28:33.999Z</time></trkpt><trkpt lat="39.391435101473974" lon="16.019288532060962"><ele>8.333333333333334</ele><time>2026-03-27T16:28:34.999Z</time></trkpt><trkpt lat="39.391603489487736" lon="16.019180494395005"><ele>7.666666666666667</ele><time>2026-03-27T16:28:35.999Z</time></trkpt><trkpt lat="39.39176458268762" lon="16.019077210097976"><ele>7.0</ele><time>2026-03-27T16:28:36.999Z</time></trkpt><trkpt lat="39.3919168942729" lon="16.018976105942837"><ele>7.0</ele><time>2026-03-27T16:28:37.999Z</time></trkpt><trkpt lat="39.392066266200615" lon="16.01887679525116"><ele>7.0</ele><time>2026-03-27T16:28:38.999Z</time></trkpt><trkpt lat="39.39221208055209" lon="16.01878039125978"><ele>7.0</ele><time>2026-03-27T16:28:39.999Z</time></trkpt><trkpt lat="39.39235599924283" lon="16.018686957055262"><ele>7.666666666666667</ele><time>2026-03-27T16:28:40.999Z</time></trkpt><trkpt lat="39.392499552771135" lon="16.018594044738503"><ele>8.333333333333334</ele><time>2026-03-27T16:28:41.999Z</time></trkpt><trkpt lat="39.39264417601865" lon="16.018501984481727"><ele>9.0</ele><time>2026-03-27T16:28:42.999Z</time></trkpt><trkpt lat="39.39279139501494" lon="16.018413690469064"><ele>9.0</ele><time>2026-03-27T16:28:43.999Z</time></trkpt><trkpt lat="39.39294120149978" lon="16.018335032036976"><ele>9.0</ele><time>2026-03-27T16:28:44.999Z</time></trkpt><trkpt lat="39.39309226112285" lon="16.018264000009992"><ele>9.0</ele><time>2026-03-27T16:28:45.999Z</time></trkpt><trkpt lat="39.39324883937637" lon="16.018198605567434"><ele>8.0</ele><time>2026-03-27T16:28:46.999Z</time></trkpt><trkpt lat="39.39341162829052" lon="16.0181337666031"><ele>7.0</ele><time>2026-03-27T16:28:47.999Z</time></trkpt><trkpt lat="39.3935848483569" lon="16.018067930226003"><ele>6.0</ele><time>2026-03-27T16:28:48.999Z</time></trkpt><trkpt lat="39.393772266189" lon="16.0180224173846"><ele>6.333333333333334</ele><time>2026-03-27T16:28:49.999Z</time></trkpt><trkpt lat="39.393968282801936" lon="16.017958869643618"><ele>6.666666666666667</ele><time>2026-03-27T16:28:50.999Z</time></trkpt><trkpt lat="39.39417863639838" lon="16.017890673785132"><ele>7.0</ele><time>2026-03-27T16:28:51.999Z</time></trkpt><trkpt lat="39.394402078221454" lon="16.017817326094885"><ele>7.0</ele><time>2026-03-27T16:28:52.999Z</time></trkpt><trkpt lat="39.394636583021516" lon="16.017740117202166"><ele>7.0</ele><time>2026-03-27T16:28:53.999Z</time></trkpt><trkpt lat="39.39487887077325" lon="16.017643343413738"><ele>7.5</ele><time>2026-03-27T16:28:54.999Z</time></trkpt><trkpt lat="39.39513232932034" lon="16.017563838811743"><ele>8.0</ele><time>2026-03-27T16:28:55.999Z</time></trkpt><trkpt lat="39.3953790184925" lon="16.01748272291815"><ele>6.5</ele><time>2026-03-27T16:28:56.999Z</time></trkpt><trkpt lat="39.39562914193834" lon="16.017401474724075"><ele>5.0</ele><time>2026-03-27T16:28:57.999Z</time></trkpt><trkpt lat="39.39588714935995" lon="16.0173157133763"><ele>5.0</ele><time>2026-03-27T16:28:58.999Z</time></trkpt><trkpt lat="39.39614937305845" lon="16.017227391879484"><ele>5.0</ele><time>2026-03-27T16:28:59.999Z</time></trkpt><trkpt lat="39.396414948588735" lon="16.017133107685357"><ele>6.0</ele><time>2026-03-27T16:29:00.999Z</time></trkpt><trkpt lat="39.396680279304604" lon="16.017033094823148"><ele>7.0</ele><time>2026-03-27T16:29:01.999Z</time></trkpt><trkpt lat="39.39694432102665" lon="16.01692629246707"><ele>9.5</ele><time>2026-03-27T16:29:02.999Z</time></trkpt><trkpt lat="39.39720749226491" lon="16.016815460895806"><ele>12.0</ele><time>2026-03-27T16:29:03.999Z</time></trkpt><trkpt lat="39.39747095941085" lon="16.016704333948173"><ele>8.0</ele><time>2026-03-27T16:29:04.999Z</time></trkpt><trkpt lat="39.39773383480552" lon="16.016592255048426"><ele>4.0</ele><time>2026-03-27T16:29:05.999Z</time></trkpt><trkpt lat="39.397997177076235" lon="16.016482006390287"><ele>6.5</ele><time>2026-03-27T16:29:06.999Z</time></trkpt><trkpt lat="39.3982592683449" lon="16.016369874336227"><ele>9.0</ele><time>2026-03-27T16:29:07.999Z</time></trkpt><trkpt lat="39.398520277448085" lon="16.016258769929454"><ele>9.0</ele><time>2026-03-27T16:29:08.999Z</time></trkpt><trkpt lat="39.39878136672625" lon="16.016147400269414"><ele>9.0</ele><time>2026-03-27T16:29:09.999Z</time></trkpt><trkpt lat="39.39904093284913" lon="16.01603383294122"><ele>11.5</ele><time>2026-03-27T16:29:10.999Z</time></trkpt><trkpt lat="39.399301731174035" lon="16.01592486316908"><ele>14.0</ele><time>2026-03-27T16:29:11.999Z</time></trkpt><trkpt lat="39.39956271250404" lon="16.015815854784524"><ele>10.5</ele><time>2026-03-27T16:29:12.999Z</time></trkpt><trkpt lat="39.3998249136295" lon="16.0157070276525"><ele>7.0</ele><time>2026-03-27T16:29:13.999Z</time></trkpt><trkpt lat="39.40008816853478" lon="16.015593530278778"><ele>7.0</ele><time>2026-03-27T16:29:14.999Z</time></trkpt><trkpt lat="39.40035116680183" lon="16.015477231569633"><ele>7.0</ele><time>2026-03-27T16:29:15.999Z</time></trkpt><trkpt lat="39.40061832993355" lon="16.015361095074443"><ele>9.0</ele><time>2026-03-27T16:29:16.999Z</time></trkpt><trkpt lat="39.400887860439965" lon="16.01524357058175"><ele>11.0</ele><time>2026-03-27T16:29:17.999Z</time></trkpt><trkpt lat="39.40116049448549" lon="16.01512528313894"><ele>13.5</ele><time>2026-03-27T16:29:18.999Z</time></trkpt><trkpt lat="39.40143599389301" lon="16.015008250494105"><ele>16.0</ele><time>2026-03-27T16:29:19.999Z</time></trkpt><trkpt lat="39.40171081678561" lon="16.01489050367973"><ele>12.5</ele><time>2026-03-27T16:29:20.999Z</time></trkpt><trkpt lat="39.40198119414139" lon="16.014777486711214"><ele>9.0</ele><time>2026-03-27T16:29:21.999Z</time></trkpt><trkpt lat="39.402245586494615" lon="16.01466772875644"><ele>9.0</ele><time>2026-03-27T16:29:22.999Z</time></trkpt><trkpt lat="39.402504506565464" lon="16.014561243476837"><ele>9.0</ele><time>2026-03-27T16:29:23.999Z</time></trkpt><trkpt lat="39.402759420726255" lon="16.01446405308675"><ele>10.0</ele><time>2026-03-27T16:29:24.999Z</time></trkpt><trkpt lat="39.4030152323609" lon="16.014393848060912"><ele>11.0</ele><time>2026-03-27T16:29:25.999Z</time></trkpt><trkpt lat="39.40327920324022" lon="16.01435973019207"><ele>11.0</ele><time>2026-03-27T16:29:26.999Z</time></trkpt><trkpt lat="39.40352800328514" lon="16.014353584680613"><ele>11.0</ele><time>2026-03-27T16:29:27.999Z</time></trkpt><trkpt lat="39.403785273991176" lon="16.014374617609043"><ele>12.5</ele><time>2026-03-27T16:29:28.999Z</time></trkpt><trkpt lat="39.40404920338823" lon="16.014405915368986"><ele>14.0</ele><time>2026-03-27T16:29:29.999Z</time></trkpt><trkpt lat="39.40431791351461" lon="16.014441978413046"><ele>14.0</ele><time>2026-03-27T16:29:30.999Z</time></trkpt><trkpt lat="39.40459244590765" lon="16.01447681775412"><ele>14.0</ele><time>2026-03-27T16:29:31.999Z</time></trkpt><trkpt lat="39.40487139608686" lon="16.014509067247555"><ele>16.5</ele><time>2026-03-27T16:29:32.999Z</time></trkpt><trkpt lat="39.40515104635944" lon="16.01454380102323"><ele>19.0</ele><time>2026-03-27T16:29:33.999Z</time></trkpt><trkpt lat="39.4054301941733" lon="16.014579403233736"><ele>18.5</ele><time>2026-03-27T16:29:34.999Z</time></trkpt><trkpt lat="39.40570339865197" lon="16.014614814035216"><ele>18.0</ele><time>2026-03-27T16:29:35.999Z</time></trkpt><trkpt lat="39.40597474110113" lon="16.01465014324391"><ele>18.0</ele><time>2026-03-27T16:29:36.999Z</time></trkpt><trkpt lat="39.40624251956721" lon="16.01468473319614"><ele>18.0</ele><time>2026-03-27T16:29:37.999Z</time></trkpt><trkpt lat="39.40650821991638" lon="16.014718110546482"><ele>18.0</ele><time>2026-03-27T16:29:38.999Z</time></trkpt><trkpt lat="39.40677054237972" lon="16.014750590538068"><ele>18.0</ele><time>2026-03-27T16:29:39.999Z</time></trkpt><trkpt lat="39.40702906446149" lon="16.014784640852895"><ele>20.0</ele><time>2026-03-27T16:29:40.999Z</time></trkpt><trkpt lat="39.407284355022405" lon="16.0148189176918"><ele>22.0</ele><time>2026-03-27T16:29:41.999Z</time></trkpt><trkpt lat="39.407535798680314" lon="16.014854812004366"><ele>22.0</ele><time>2026-03-27T16:29:42.999Z</time></trkpt><trkpt lat="39.40778424326527" lon="16.014886079163535"><ele>22.0</ele><time>2026-03-27T16:29:43.999Z</time></trkpt><trkpt lat="39.40802937223821" lon="16.014917910526858"><ele>23.5</ele><time>2026-03-27T16:29:44.999Z</time></trkpt><trkpt lat="39.40827176181953" lon="16.014947200616252"><ele>25.0</ele><time>2026-03-27T16:29:45.999Z</time></trkpt><trkpt lat="39.40851094013242" lon="16.014972510123"><ele>29.5</ele><time>2026-03-27T16:29:46.999Z</time></trkpt><trkpt lat="39.40874378378859" lon="16.01499891281309"><ele>34.0</ele><time>2026-03-27T16:29:47.999Z</time></trkpt><trkpt lat="39.40897126562374" lon="16.01503100265301"><ele>34.0</ele><time>2026-03-27T16:29:48.999Z</time></trkpt><trkpt lat="39.40919844790396" lon="16.01505922778359"><ele>34.0</ele><time>2026-03-27T16:29:49.999Z</time></trkpt><trkpt lat="39.409426927349585" lon="16.01508397318799"><ele>34.0</ele><time>2026-03-27T16:29:50.999Z</time></trkpt><trkpt lat="39.40965744917251" lon="16.015089447462213"><ele>34.0</ele><time>2026-03-27T16:29:51.999Z</time></trkpt><trkpt lat="39.40988808716946" lon="16.015070155899505"><ele>34.0</ele><time>2026-03-27T16:29:52.999Z</time></trkpt><trkpt lat="39.41012728467637" lon="16.015038360128152"><ele>34.0</ele><time>2026-03-27T16:29:53.999Z</time></trkpt><trkpt lat="39.410372602866474" lon="16.014997345254045"><ele>27.5</ele><time>2026-03-27T16:29:54.999Z</time></trkpt><trkpt lat="39.410621825074266" lon="16.01495289318303"><ele>21.0</ele><time>2026-03-27T16:29:55.999Z</time></trkpt><trkpt lat="39.41088068539256" lon="16.01490086756819"><ele>21.0</ele><time>2026-03-27T16:29:56.999Z</time></trkpt><trkpt lat="39.41114265281837" lon="16.014848957582714"><ele>21.0</ele><time>2026-03-27T16:29:57.999Z</time></trkpt><trkpt lat="39.411402492822354" lon="16.014798091337603"><ele>23.0</ele><time>2026-03-27T16:29:58.999Z</time></trkpt><trkpt lat="39.41165782800352" lon="16.01475049346591"><ele>25.0</ele><time>2026-03-27T16:29:59.999Z</time></trkpt><trkpt lat="39.411908005753084" lon="16.01470317485727"><ele>25.0</ele><time>2026-03-27T16:30:00.999Z</time></trkpt><trkpt lat="39.41215231641285" lon="16.014656152734222"><ele>25.0</ele><time>2026-03-27T16:30:01.999Z</time></trkpt><trkpt lat="39.41239065150951" lon="16.014608205652788"><ele>27.0</ele><time>2026-03-27T16:30:02.999Z</time></trkpt><trkpt lat="39.41262444491486" lon="16.014562186515455"><ele>29.0</ele><time>2026-03-27T16:30:03.999Z</time></trkpt><trkpt lat="39.41285221876288" lon="16.014517004593344"><ele>30.0</ele><time>2026-03-27T16:30:04.999Z</time></trkpt><trkpt lat="39.413074286149204" lon="16.014464616070573"><ele>31.0</ele><time>2026-03-27T16:30:05.999Z</time></trkpt><trkpt lat="39.41328993258877" lon="16.014404543294496"><ele>32.0</ele><time>2026-03-27T16:30:06.999Z</time></trkpt><trkpt lat="39.413500808431955" lon="16.014325047183586"><ele>32.0</ele><time>2026-03-27T16:30:07.999Z</time></trkpt><trkpt lat="39.4137076829004" lon="16.014223033841656"><ele>32.0</ele><time>2026-03-27T16:30:08.999Z</time></trkpt><trkpt lat="39.41391193057386" lon="16.014095747654107"><ele>32.0</ele><time>2026-03-27T16:30:09.999Z</time></trkpt><trkpt lat="39.41411916895153" lon="16.01395527099121"><ele>31.0</ele><time>2026-03-27T16:30:10.999Z</time></trkpt><trkpt lat="39.4143311424247" lon="16.013810213704144"><ele>30.0</ele><time>2026-03-27T16:30:11.999Z</time></trkpt><trkpt lat="39.4145455041597" lon="16.013658896296832"><ele>35.0</ele><time>2026-03-27T16:30:12.999Z</time></trkpt><trkpt lat="39.41476359649697" lon="16.013505190583412"><ele>40.0</ele><time>2026-03-27T16:30:13.999Z</time></trkpt><trkpt lat="39.41498375956345" lon="16.01334801006384"><ele>34.5</ele><time>2026-03-27T16:30:14.999Z</time></trkpt><trkpt lat="39.41520982004259" lon="16.013186698353962"><ele>29.0</ele><time>2026-03-27T16:30:15.999Z</time></trkpt><trkpt lat="39.41543435209027" lon="16.013023922943507"><ele>31.5</ele><time>2026-03-27T16:30:16.999Z</time></trkpt><trkpt lat="39.4156544628791" lon="16.012859620436867"><ele>34.0</ele><time>2026-03-27T16:30:17.999Z</time></trkpt><trkpt lat="39.41586719508472" lon="16.012690485524644"><ele>34.0</ele><time>2026-03-27T16:30:18.999Z</time></trkpt><trkpt lat="39.41607340002521" lon="16.01251467618133"><ele>34.0</ele><time>2026-03-27T16:30:19.999Z</time></trkpt><trkpt lat="39.41627359414684" lon="16.012333505345694"><ele>30.5</ele><time>2026-03-27T16:30:20.999Z</time></trkpt><trkpt lat="39.41646523590882" lon="16.01214786344106"><ele>27.0</ele><time>2026-03-27T16:30:21.999Z</time></trkpt><trkpt lat="39.41665297392622" lon="16.01196307577463"><ele>27.0</ele><time>2026-03-27T16:30:22.999Z</time></trkpt><trkpt lat="39.41683965606677" lon="16.011779708377542"><ele>27.0</ele><time>2026-03-27T16:30:23.999Z</time></trkpt><trkpt lat="39.41702491896938" lon="16.011594258463745"><ele>26.5</ele><time>2026-03-27T16:30:24.999Z</time></trkpt><trkpt lat="39.417212381996954" lon="16.0114071069731"><ele>26.0</ele><time>2026-03-27T16:30:25.999Z</time></trkpt><trkpt lat="39.417399767796184" lon="16.011219263251505"><ele>26.0</ele><time>2026-03-27T16:30:26.999Z</time></trkpt><trkpt lat="39.417588997130466" lon="16.011028862205826"><ele>26.0</ele><time>2026-03-27T16:30:27.999Z</time></trkpt><trkpt lat="39.417778125246215" lon="16.010839567140355"><ele>23.5</ele><time>2026-03-27T16:30:28.999Z</time></trkpt><trkpt lat="39.41797508093664" lon="16.010644179071964"><ele>21.0</ele><time>2026-03-27T16:30:29.999Z</time></trkpt><trkpt lat="39.4181779473623" lon="16.01044415203994"><ele>19.5</ele><time>2026-03-27T16:30:30.999Z</time></trkpt><trkpt lat="39.418383122105304" lon="16.010243617701658"><ele>18.0</ele><time>2026-03-27T16:30:31.999Z</time></trkpt><trkpt lat="39.41866944800781" lon="16.010185016697985"><ele>14.0</ele><time>2026-03-27T16:30:32.999Z</time></trkpt><trkpt lat="39.41887659572022" lon="16.00998758513841"><ele>10.0</ele><time>2026-03-27T16:30:33.999Z</time></trkpt><trkpt lat="39.419083537621255" lon="16.00979034561283"><ele>10.0</ele><time>2026-03-27T16:30:34.999Z</time></trkpt><trkpt lat="39.41928309607095" lon="16.0095877213224"><ele>10.0</ele><time>2026-03-27T16:30:35.999Z</time></trkpt><trkpt lat="39.41948015577801" lon="16.009386904028112"><ele>9.0</ele><time>2026-03-27T16:30:36.999Z</time></trkpt><trkpt lat="39.41959318631142" lon="16.00904429122434"><ele>8.0</ele><time>2026-03-27T16:30:37.999Z</time></trkpt><trkpt lat="39.41978884280528" lon="16.00884984411267"><ele>8.0</ele><time>2026-03-27T16:30:38.999Z</time></trkpt><trkpt lat="39.419983280778936" lon="16.00865394520513"><ele>8.0</ele><time>2026-03-27T16:30:39.999Z</time></trkpt><trkpt lat="39.42017861627873" lon="16.008459242281077"><ele>7.5</ele><time>2026-03-27T16:30:40.999Z</time></trkpt><trkpt lat="39.4203744883657" lon="16.008264061233852"><ele>7.0</ele><time>2026-03-27T16:30:41.999Z</time></trkpt><trkpt lat="39.42057131329695" lon="16.008067852697316"><ele>7.0</ele><time>2026-03-27T16:30:42.999Z</time></trkpt><trkpt lat="39.42076911640308" lon="16.007872055713477"><ele>7.0</ele><time>2026-03-27T16:30:43.999Z</time></trkpt><trkpt lat="39.4209631006207" lon="16.007677648687036"><ele>7.0</ele><time>2026-03-27T16:30:44.999Z</time></trkpt><trkpt lat="39.42115302138723" lon="16.007487949239838"><ele>7.0</ele><time>2026-03-27T16:30:45.999Z</time></trkpt><trkpt lat="39.42133556922208" lon="16.007306279613765"><ele>7.333333333333334</ele><time>2026-03-27T16:30:46.999Z</time></trkpt><trkpt lat="39.421508607142336" lon="16.00713558743515"><ele>7.666666666666666</ele><time>2026-03-27T16:30:47.999Z</time></trkpt><trkpt lat="39.42167171872523" lon="16.006973828209038"><ele>8.0</ele><time>2026-03-27T16:30:48.999Z</time></trkpt><trkpt lat="39.42182829953254" lon="16.006818286112416"><ele>8.0</ele><time>2026-03-27T16:30:49.999Z</time></trkpt><trkpt lat="39.421980438325484" lon="16.006671833808692"><ele>8.0</ele><time>2026-03-27T16:30:50.999Z</time></trkpt><trkpt lat="39.42212754505771" lon="16.006544062300883"><ele>8.0</ele><time>2026-03-27T16:30:51.999Z</time></trkpt><trkpt lat="39.42227487539744" lon="16.0064312331561"><ele>8.666666666666666</ele><time>2026-03-27T16:30:52.999Z</time></trkpt><trkpt lat="39.42242123835981" lon="16.00633466144436"><ele>9.333333333333334</ele><time>2026-03-27T16:30:53.999Z</time></trkpt><trkpt lat="39.42256478751229" lon="16.006247428044674"><ele>10.0</ele><time>2026-03-27T16:30:54.999Z</time></trkpt><trkpt lat="39.422707967426874" lon="16.00616281080182"><ele>10.0</ele><time>2026-03-27T16:30:55.999Z</time></trkpt><trkpt lat="39.42285502275452" lon="16.006078201248062"><ele>10.0</ele><time>2026-03-27T16:30:56.999Z</time></trkpt><trkpt lat="39.423001294209044" lon="16.005997421438884"><ele>10.0</ele><time>2026-03-27T16:30:57.999Z</time></trkpt><trkpt lat="39.42314342829978" lon="16.005918242887184"><ele>10.0</ele><time>2026-03-27T16:30:58.999Z</time></trkpt><trkpt lat="39.423288701206005" lon="16.005838600439628"><ele>10.0</ele><time>2026-03-27T16:30:59.999Z</time></trkpt><trkpt lat="39.42343309586865" lon="16.005759170568464"><ele>10.0</ele><time>2026-03-27T16:31:00.999Z</time></trkpt><trkpt lat="39.42357509024894" lon="16.005679338850143"><ele>10.0</ele><time>2026-03-27T16:31:01.999Z</time></trkpt><trkpt lat="39.42371332219062" lon="16.005601281143516"><ele>10.0</ele><time>2026-03-27T16:31:02.999Z</time></trkpt><trkpt lat="39.42384900821787" lon="16.005524607230765"><ele>10.0</ele><time>2026-03-27T16:31:03.999Z</time></trkpt><trkpt lat="39.4239847445966" lon="16.005448787517572"><ele>10.0</ele><time>2026-03-27T16:31:04.999Z</time></trkpt><trkpt lat="39.424122238807904" lon="16.00537295224835"><ele>10.333333333333334</ele><time>2026-03-27T16:31:05.999Z</time></trkpt><trkpt lat="39.42426499490286" lon="16.00529336205093"><ele>10.666666666666666</ele><time>2026-03-27T16:31:06.999Z</time></trkpt><trkpt lat="39.42441263962775" lon="16.005211859386698"><ele>11.0</ele><time>2026-03-27T16:31:07.999Z</time></trkpt><trkpt lat="39.424560521119815" lon="16.005132324682965"><ele>10.333333333333332</ele><time>2026-03-27T16:31:08.999Z</time></trkpt><trkpt lat="39.42471197091268" lon="16.00505489932874"><ele>9.666666666666666</ele><time>2026-03-27T16:31:09.999Z</time></trkpt><trkpt lat="39.424866807153116" lon="16.004979900056977"><ele>9.0</ele><time>2026-03-27T16:31:10.999Z</time></trkpt><trkpt lat="39.42502384345793" lon="16.00490841050585"><ele>9.0</ele><time>2026-03-27T16:31:11.999Z</time></trkpt><trkpt lat="39.425181158915755" lon="16.004840729980327"><ele>9.0</ele><time>2026-03-27T16:31:12.999Z</time></trkpt><trkpt lat="39.42533820253143" lon="16.004776673670733"><ele>9.0</ele><time>2026-03-27T16:31:13.999Z</time></trkpt><trkpt lat="39.42549415620212" lon="16.004716746649812"><ele>9.333333333333334</ele><time>2026-03-27T16:31:14.999Z</time></trkpt><trkpt lat="39.425650970694825" lon="16.004659993670238"><ele>9.666666666666668</ele><time>2026-03-27T16:31:15.999Z</time></trkpt><trkpt lat="39.42580754046571" lon="16.004601847070205"><ele>10.0</ele><time>2026-03-27T16:31:16.999Z</time></trkpt><trkpt lat="39.42596270459628" lon="16.004543948494725"><ele>10.0</ele><time>2026-03-27T16:31:17.999Z</time></trkpt><trkpt lat="39.42611736948945" lon="16.004486808149693"><ele>10.0</ele><time>2026-03-27T16:31:18.999Z</time></trkpt><trkpt lat="39.426272117752085" lon="16.00442910661186"><ele>10.0</ele><time>2026-03-27T16:31:19.999Z</time></trkpt><trkpt lat="39.42642620399856" lon="16.004370774874246"><ele>10.0</ele><time>2026-03-27T16:31:20.999Z</time></trkpt><trkpt lat="39.42658056922859" lon="16.004311572446287"><ele>10.0</ele><time>2026-03-27T16:31:21.999Z</time></trkpt><trkpt lat="39.426736628314046" lon="16.00424966133048"><ele>10.0</ele><time>2026-03-27T16:31:22.999Z</time></trkpt><trkpt lat="39.426890613547364" lon="16.00418729289664"><ele>9.0</ele><time>2026-03-27T16:31:23.999Z</time></trkpt><trkpt lat="39.42704131490347" lon="16.00412674548699"><ele>8.0</ele><time>2026-03-27T16:31:24.999Z</time></trkpt><trkpt lat="39.42719192541963" lon="16.00406757656164"><ele>7.0</ele><time>2026-03-27T16:31:25.999Z</time></trkpt><trkpt lat="39.42734358751181" lon="16.004008342515164"><ele>7.0</ele><time>2026-03-27T16:31:26.999Z</time></trkpt><trkpt lat="39.427501651727425" lon="16.003947862708223"><ele>7.0</ele><time>2026-03-27T16:31:27.999Z</time></trkpt><trkpt lat="39.427662528772935" lon="16.00388443303893"><ele>7.0</ele><time>2026-03-27T16:31:28.999Z</time></trkpt><trkpt lat="39.42783040746397" lon="16.003816803907437"><ele>7.333333333333334</ele><time>2026-03-27T16:31:29.999Z</time></trkpt><trkpt lat="39.428001161784294" lon="16.003748458476643"><ele>7.666666666666666</ele><time>2026-03-27T16:31:30.999Z</time></trkpt><trkpt lat="39.428181878561396" lon="16.00367883932073"><ele>8.0</ele><time>2026-03-27T16:31:31.999Z</time></trkpt><trkpt lat="39.42836959228233" lon="16.00360867204417"><ele>8.0</ele><time>2026-03-27T16:31:32.999Z</time></trkpt><trkpt lat="39.42855617015121" lon="16.003545186809752"><ele>8.0</ele><time>2026-03-27T16:31:33.999Z</time></trkpt><trkpt lat="39.42873944824707" lon="16.003487525712632"><ele>8.0</ele><time>2026-03-27T16:31:34.999Z</time></trkpt><trkpt lat="39.42892178923247" lon="16.0034335124442"><ele>8.0</ele><time>2026-03-27T16:31:35.999Z</time></trkpt><trkpt lat="39.42910196429347" lon="16.00338359458829"><ele>8.0</ele><time>2026-03-27T16:31:36.999Z</time></trkpt><trkpt lat="39.429281176747516" lon="16.00333594031945"><ele>8.0</ele><time>2026-03-27T16:31:37.999Z</time></trkpt><trkpt lat="39.42945837076497" lon="16.003287979241204"><ele>8.0</ele><time>2026-03-27T16:31:38.999Z</time></trkpt><trkpt lat="39.429634037999456" lon="16.003241236733764"><ele>8.0</ele><time>2026-03-27T16:31:39.999Z</time></trkpt><trkpt lat="39.42981107124765" lon="16.003193681479136"><ele>8.0</ele><time>2026-03-27T16:31:40.999Z</time></trkpt><trkpt lat="39.42999164480346" lon="16.003146829597068"><ele>8.0</ele><time>2026-03-27T16:31:41.999Z</time></trkpt><trkpt lat="39.43017587929549" lon="16.003098040986135"><ele>8.0</ele><time>2026-03-27T16:31:42.999Z</time></trkpt><trkpt lat="39.43035937288237" lon="16.003049739487906"><ele>8.0</ele><time>2026-03-27T16:31:43.999Z</time></trkpt><trkpt lat="39.430538637055434" lon="16.00299803148955"><ele>8.0</ele><time>2026-03-27T16:31:44.999Z</time></trkpt><trkpt lat="39.43071611411032" lon="16.002939074673982"><ele>8.0</ele><time>2026-03-27T16:31:45.999Z</time></trkpt><trkpt lat="39.430888125360525" lon="16.00286539246918"><ele>8.0</ele><time>2026-03-27T16:31:46.999Z</time></trkpt><trkpt lat="39.43105617289724" lon="16.002781212976224"><ele>8.0</ele><time>2026-03-27T16:31:47.999Z</time></trkpt><trkpt lat="39.431220611858585" lon="16.00269536518126"><ele>8.0</ele><time>2026-03-27T16:31:48.999Z</time></trkpt><trkpt lat="39.43138151633546" lon="16.00261040120271"><ele>8.0</ele><time>2026-03-27T16:31:49.999Z</time></trkpt><trkpt lat="39.43153791071946" lon="16.002525484977564"><ele>7.333333333333333</ele><time>2026-03-27T16:31:50.999Z</time></trkpt><trkpt lat="39.43168914183016" lon="16.002441588207095"><ele>6.666666666666666</ele><time>2026-03-27T16:31:51.999Z</time></trkpt><trkpt lat="39.43183513055913" lon="16.002359586717635"><ele>6.0</ele><time>2026-03-27T16:31:52.999Z</time></trkpt><trkpt lat="39.431978241871704" lon="16.002279184250867"><ele>6.0</ele><time>2026-03-27T16:31:53.999Z</time></trkpt><trkpt lat="39.43211875006417" lon="16.002201673564517"><ele>6.0</ele><time>2026-03-27T16:31:54.999Z</time></trkpt><trkpt lat="39.432256803176195" lon="16.002125377274485"><ele>6.0</ele><time>2026-03-27T16:31:55.999Z</time></trkpt><trkpt lat="39.432391079804084" lon="16.0020514800081"><ele>6.0</ele><time>2026-03-27T16:31:56.999Z</time></trkpt><trkpt lat="39.432523097947495" lon="16.001978696636073"><ele>6.25</ele><time>2026-03-27T16:31:57.999Z</time></trkpt><trkpt lat="39.43265324465554" lon="16.00190669943419"><ele>6.5</ele><time>2026-03-27T16:31:58.999Z</time></trkpt><trkpt lat="39.432787021749675" lon="16.001834443391992"><ele>6.75</ele><time>2026-03-27T16:31:59.999Z</time></trkpt><trkpt lat="39.43292369850737" lon="16.001758052897888"><ele>7.0</ele><time>2026-03-27T16:32:00.999Z</time></trkpt><trkpt lat="39.43306308975839" lon="16.00167846315745"><ele>7.0</ele><time>2026-03-27T16:32:01.999Z</time></trkpt><trkpt lat="39.433204978084376" lon="16.00159365015454"><ele>7.0</ele><time>2026-03-27T16:32:02.999Z</time></trkpt><trkpt lat="39.433347543974044" lon="16.00150581801052"><ele>7.0</ele><time>2026-03-27T16:32:03.999Z</time></trkpt><trkpt lat="39.433489733861485" lon="16.001417621137232"><ele>7.0</ele><time>2026-03-27T16:32:04.999Z</time></trkpt><trkpt lat="39.433631761552014" lon="16.0013284043197"><ele>7.0</ele><time>2026-03-27T16:32:05.999Z</time></trkpt><trkpt lat="39.43377296473793" lon="16.001238957452266"><ele>7.0</ele><time>2026-03-27T16:32:06.999Z</time></trkpt><trkpt lat="39.433911400255965" lon="16.001148725330886"><ele>7.0</ele><time>2026-03-27T16:32:07.999Z</time></trkpt><trkpt lat="39.43404776259404" lon="16.001057709851374"><ele>7.0</ele><time>2026-03-27T16:32:08.999Z</time></trkpt><trkpt lat="39.43418343034835" lon="16.000965592655252"><ele>7.0</ele><time>2026-03-27T16:32:09.999Z</time></trkpt><trkpt lat="39.43432145084838" lon="16.00087239525718"><ele>7.333333333333334</ele><time>2026-03-27T16:32:10.999Z</time></trkpt><trkpt lat="39.434462961670214" lon="16.00077711103883"><ele>7.666666666666666</ele><time>2026-03-27T16:32:11.999Z</time></trkpt><trkpt lat="39.434609030011465" lon="16.000680849471884"><ele>8.0</ele><time>2026-03-27T16:32:12.999Z</time></trkpt><trkpt lat="39.43475768746756" lon="16.000590059126996"><ele>8.0</ele><time>2026-03-27T16:32:13.999Z</time></trkpt><trkpt lat="39.43490682363" lon="16.000503926394646"><ele>8.0</ele><time>2026-03-27T16:32:14.999Z</time></trkpt><trkpt lat="39.43505725589071" lon="16.000421778922068"><ele>8.0</ele><time>2026-03-27T16:32:15.999Z</time></trkpt><trkpt lat="39.435209064071714" lon="16.00034239160127"><ele>8.0</ele><time>2026-03-27T16:32:16.999Z</time></trkpt><trkpt lat="39.43536135689178" lon="16.00026278652282"><ele>8.0</ele><time>2026-03-27T16:32:17.999Z</time></trkpt><trkpt lat="39.435516151955" lon="16.000184506497515"><ele>8.0</ele><time>2026-03-27T16:32:18.999Z</time></trkpt><trkpt lat="39.43567509670985" lon="16.00010544543797"><ele>8.333333333333332</ele><time>2026-03-27T16:32:19.999Z</time></trkpt><trkpt lat="39.43583740225148" lon="16.000025281299234"><ele>8.666666666666666</ele><time>2026-03-27T16:32:20.999Z</time></trkpt><trkpt lat="39.436003564184546" lon="15.999941480705255"><ele>9.0</ele><time>2026-03-27T16:32:21.999Z</time></trkpt><trkpt lat="39.43617415508369" lon="15.999856484770769"><ele>9.0</ele><time>2026-03-27T16:32:22.999Z</time></trkpt><trkpt lat="39.436350910419485" lon="15.999768937264106"><ele>9.0</ele><time>2026-03-27T16:32:23.999Z</time></trkpt><trkpt lat="39.43652546680459" lon="15.999683091541007"><ele>9.0</ele><time>2026-03-27T16:32:24.999Z</time></trkpt><trkpt lat="39.43669760917881" lon="15.999598983550191"><ele>9.0</ele><time>2026-03-27T16:32:25.999Z</time></trkpt><trkpt lat="39.43686760119038" lon="15.999515606625401"><ele>9.0</ele><time>2026-03-27T16:32:26.999Z</time></trkpt><trkpt lat="39.4370344462259" lon="15.999432518878292"><ele>9.0</ele><time>2026-03-27T16:32:27.999Z</time></trkpt><trkpt lat="39.43719812198558" lon="15.99935065787951"><ele>8.333333333333334</ele><time>2026-03-27T16:32:28.999Z</time></trkpt><trkpt lat="39.43736049598252" lon="15.99926940587935"><ele>7.666666666666667</ele><time>2026-03-27T16:32:29.999Z</time></trkpt><trkpt lat="39.43752096425628" lon="15.99918702955792"><ele>7.0</ele><time>2026-03-27T16:32:30.999Z</time></trkpt><trkpt lat="39.43768185704222" lon="15.999106866545283"><ele>7.0</ele><time>2026-03-27T16:32:31.999Z</time></trkpt><trkpt lat="39.43784576812237" lon="15.999026479713276"><ele>7.0</ele><time>2026-03-27T16:32:32.999Z</time></trkpt><trkpt lat="39.43801192373788" lon="15.998945711484946"><ele>7.0</ele><time>2026-03-27T16:32:33.999Z</time></trkpt><trkpt lat="39.438179062506734" lon="15.998864799395095"><ele>7.0</ele><time>2026-03-27T16:32:34.999Z</time></trkpt><trkpt lat="39.438345943134465" lon="15.998785104918978"><ele>7.0</ele><time>2026-03-27T16:32:35.999Z</time></trkpt><trkpt lat="39.43851383599911" lon="15.998708270287649"><ele>7.0</ele><time>2026-03-27T16:32:36.999Z</time></trkpt><trkpt lat="39.438681060869314" lon="15.998633340827173"><ele>6.666666666666667</ele><time>2026-03-27T16:32:37.999Z</time></trkpt><trkpt lat="39.43884750120776" lon="15.998559500084435"><ele>6.333333333333334</ele><time>2026-03-27T16:32:38.999Z</time></trkpt><trkpt lat="39.4390144334884" lon="15.998487128844188"><ele>6.0</ele><time>2026-03-27T16:32:39.999Z</time></trkpt><trkpt lat="39.43918262497943" lon="15.998414441990633"><ele>6.0</ele><time>2026-03-27T16:32:40.999Z</time></trkpt><trkpt lat="39.43935148182341" lon="15.998342408125996"><ele>6.0</ele><time>2026-03-27T16:32:41.999Z</time></trkpt><trkpt lat="39.43951814406238" lon="15.99827105112628"><ele>6.0</ele><time>2026-03-27T16:32:42.999Z</time></trkpt><trkpt lat="39.43968288029367" lon="15.998202955900217"><ele>5.666666666666667</ele><time>2026-03-27T16:32:43.999Z</time></trkpt><trkpt lat="39.439843586717835" lon="15.998134851822508"><ele>5.333333333333334</ele><time>2026-03-27T16:32:44.999Z</time></trkpt><trkpt lat="39.440001207821645" lon="15.998067872013227"><ele>5.0</ele><time>2026-03-27T16:32:45.999Z</time></trkpt><trkpt lat="39.44015587065325" lon="15.998000750392146"><ele>5.0</ele><time>2026-03-27T16:32:46.999Z</time></trkpt><trkpt lat="39.44030675536336" lon="15.997934048049885"><ele>5.0</ele><time>2026-03-27T16:32:47.999Z</time></trkpt><trkpt lat="39.44045539636349" lon="15.997868730162153"><ele>5.0</ele><time>2026-03-27T16:32:48.999Z</time></trkpt><trkpt lat="39.44060096375969" lon="15.997805386802746"><ele>4.666666666666667</ele><time>2026-03-27T16:32:49.999Z</time></trkpt><trkpt lat="39.44074433084132" lon="15.997742222820609"><ele>4.333333333333333</ele><time>2026-03-27T16:32:50.999Z</time></trkpt><trkpt lat="39.440888473933555" lon="15.997679235938389"><ele>4.0</ele><time>2026-03-27T16:32:51.999Z</time></trkpt><trkpt lat="39.44103367540438" lon="15.997616962957757"><ele>4.0</ele><time>2026-03-27T16:32:52.999Z</time></trkpt><trkpt lat="39.441179035767746" lon="15.997553702163545"><ele>4.0</ele><time>2026-03-27T16:32:53.999Z</time></trkpt><trkpt lat="39.44132269190528" lon="15.99749001402609"><ele>4.0</ele><time>2026-03-27T16:32:54.999Z</time></trkpt><trkpt lat="39.441466966088505" lon="15.997426665695404"><ele>4.666666666666666</ele><time>2026-03-27T16:32:55.999Z</time></trkpt><trkpt lat="39.44161376809001" lon="15.997362212197896"><ele>5.333333333333333</ele><time>2026-03-27T16:32:56.999Z</time></trkpt><trkpt lat="39.44176227285198" lon="15.997294869543568"><ele>6.0</ele><time>2026-03-27T16:32:57.999Z</time></trkpt><trkpt lat="39.44190973353373" lon="15.997224088540106"><ele>6.0</ele><time>2026-03-27T16:32:58.999Z</time></trkpt><trkpt lat="39.44205515718826" lon="15.997145636207401"><ele>6.0</ele><time>2026-03-27T16:32:59.999Z</time></trkpt><trkpt lat="39.44219986813734" lon="15.997063651132775"><ele>6.0</ele><time>2026-03-27T16:33:00.999Z</time></trkpt><trkpt lat="39.44234347812708" lon="15.99697991425923"><ele>6.0</ele><time>2026-03-27T16:33:01.999Z</time></trkpt><trkpt lat="39.44248613825364" lon="15.996895833164654"><ele>6.0</ele><time>2026-03-27T16:33:02.999Z</time></trkpt><trkpt lat="39.44262872357453" lon="15.996810776398076"><ele>6.0</ele><time>2026-03-27T16:33:03.999Z</time></trkpt><trkpt lat="39.442772309926575" lon="15.996725274808009"><ele>6.0</ele><time>2026-03-27T16:33:04.999Z</time></trkpt><trkpt lat="39.44291461150201" lon="15.996641468423046"><ele>6.0</ele><time>2026-03-27T16:33:05.999Z</time></trkpt><trkpt lat="39.44305553719827" lon="15.996558945154792"><ele>6.0</ele><time>2026-03-27T16:33:06.999Z</time></trkpt><trkpt lat="39.44319584597375" lon="15.996477119850988"><ele>6.0</ele><time>2026-03-27T16:33:07.999Z</time></trkpt><trkpt lat="39.44333611569267" lon="15.996391731482596"><ele>6.0</ele><time>2026-03-27T16:33:08.999Z</time></trkpt><trkpt lat="39.44347968647688" lon="15.99630034621528"><ele>6.0</ele><time>2026-03-27T16:33:09.999Z</time></trkpt><trkpt lat="39.44362956474112" lon="15.996199783813278"><ele>6.0</ele><time>2026-03-27T16:33:10.999Z</time></trkpt><trkpt lat="39.443788472961224" lon="15.996091640543785"><ele>6.0</ele><time>2026-03-27T16:33:11.999Z</time></trkpt><trkpt lat="39.44395703968735" lon="15.995974486582572"><ele>6.0</ele><time>2026-03-27T16:33:12.999Z</time></trkpt><trkpt lat="39.44413681277572" lon="15.995852420523384"><ele>6.333333333333334</ele><time>2026-03-27T16:33:13.999Z</time></trkpt><trkpt lat="39.444327057627" lon="15.995732055962694"><ele>6.666666666666667</ele><time>2026-03-27T16:33:14.999Z</time></trkpt><trkpt lat="39.44453035167104" lon="15.995623524559367"><ele>7.0</ele><time>2026-03-27T16:33:15.999Z</time></trkpt><trkpt lat="39.44473510258877" lon="15.995537141652568"><ele>7.666666666666667</ele><time>2026-03-27T16:33:16.999Z</time></trkpt><trkpt lat="39.44493956687753" lon="15.995465528901617"><ele>8.333333333333334</ele><time>2026-03-27T16:33:17.999Z</time></trkpt><trkpt lat="39.44513940642158" lon="15.995400412316576"><ele>9.0</ele><time>2026-03-27T16:33:18.999Z</time></trkpt><trkpt lat="39.445333938611384" lon="15.995337311470642"><ele>8.666666666666666</ele><time>2026-03-27T16:33:19.999Z</time></trkpt><trkpt lat="39.44552225266496" lon="15.995276309103508"><ele>8.333333333333332</ele><time>2026-03-27T16:33:20.999Z</time></trkpt><trkpt lat="39.445707298646944" lon="15.995215908079437"><ele>8.0</ele><time>2026-03-27T16:33:21.999Z</time></trkpt><trkpt lat="39.44588822689626" lon="15.995156142898123"><ele>8.0</ele><time>2026-03-27T16:33:22.999Z</time></trkpt><trkpt lat="39.44606837260877" lon="15.995095535442088"><ele>8.0</ele><time>2026-03-27T16:33:23.999Z</time></trkpt><trkpt lat="39.4462467275532" lon="15.995036005422264"><ele>8.0</ele><time>2026-03-27T16:33:24.999Z</time></trkpt><trkpt lat="39.44642466765141" lon="15.994976227087509"><ele>8.0</ele><time>2026-03-27T16:33:25.999Z</time></trkpt><trkpt lat="39.44660418063969" lon="15.994916935974473"><ele>8.0</ele><time>2026-03-27T16:33:26.999Z</time></trkpt><trkpt lat="39.44677752799845" lon="15.994859083095458"><ele>8.0</ele><time>2026-03-27T16:33:27.999Z</time></trkpt><trkpt lat="39.446948900313316" lon="15.994799338241593"><ele>8.0</ele><time>2026-03-27T16:33:28.999Z</time></trkpt><trkpt lat="39.44711368778601" lon="15.994736196035515"><ele>8.0</ele><time>2026-03-27T16:33:29.999Z</time></trkpt><trkpt lat="39.447275551965625" lon="15.994662085148569"><ele>8.0</ele><time>2026-03-27T16:33:30.999Z</time></trkpt><trkpt lat="39.44743321756317" lon="15.994581060829308"><ele>8.333333333333332</ele><time>2026-03-27T16:33:31.999Z</time></trkpt><trkpt lat="39.44758681861369" lon="15.994495489404885"><ele>8.666666666666666</ele><time>2026-03-27T16:33:32.999Z</time></trkpt><trkpt lat="39.44774028510594" lon="15.994406012140479"><ele>9.0</ele><time>2026-03-27T16:33:33.999Z</time></trkpt><trkpt lat="39.44789272487096" lon="15.994315760369746"><ele>10.666666666666668</ele><time>2026-03-27T16:33:34.999Z</time></trkpt><trkpt lat="39.448045339341206" lon="15.994223858916538"><ele>12.333333333333334</ele><time>2026-03-27T16:33:35.999Z</time></trkpt><trkpt lat="39.44819817702758" lon="15.994131463155544"><ele>14.0</ele><time>2026-03-27T16:33:36.999Z</time></trkpt><trkpt lat="39.448351631701065" lon="15.994037883520372"><ele>14.0</ele><time>2026-03-27T16:33:37.999Z</time></trkpt><trkpt lat="39.44850626375559" lon="15.99394351194594"><ele>14.0</ele><time>2026-03-27T16:33:38.999Z</time></trkpt><trkpt lat="39.4486641332604" lon="15.993849087847567"><ele>14.0</ele><time>2026-03-27T16:33:39.999Z</time></trkpt><trkpt lat="39.4488234345694" lon="15.993754148008039"><ele>18.333333333333336</ele><time>2026-03-27T16:33:40.999Z</time></trkpt><trkpt lat="39.44898684324023" lon="15.993658017343316"><ele>22.666666666666668</ele><time>2026-03-27T16:33:41.999Z</time></trkpt><trkpt lat="39.4491523256661" lon="15.993559888195211"><ele>27.0</ele><time>2026-03-27T16:33:42.999Z</time></trkpt><trkpt lat="39.449322119899165" lon="15.9934605034017"><ele>27.0</ele><time>2026-03-27T16:33:43.999Z</time></trkpt><trkpt lat="39.44949405117878" lon="15.993358910989143"><ele>27.0</ele><time>2026-03-27T16:33:44.999Z</time></trkpt><trkpt lat="39.44966804347176" lon="15.9932580496402"><ele>27.0</ele><time>2026-03-27T16:33:45.999Z</time></trkpt><trkpt lat="39.44983931646998" lon="15.993155943371148"><ele>41.66666666666667</ele><time>2026-03-27T16:33:46.999Z</time></trkpt><trkpt lat="39.4500108594537" lon="15.99305568997334"><ele>56.333333333333336</ele><time>2026-03-27T16:33:47.999Z</time></trkpt><trkpt lat="39.450180719044056" lon="15.992955392269618"><ele>71.0</ele><time>2026-03-27T16:33:48.999Z</time></trkpt><trkpt lat="39.45034963159123" lon="15.992854524742416"><ele>80.0</ele><time>2026-03-27T16:33:49.999Z</time></trkpt><trkpt lat="39.45051964985562" lon="15.99275261455521"><ele>89.0</ele><time>2026-03-27T16:33:50.999Z</time></trkpt><trkpt lat="39.45069140853197" lon="15.992649563294012"><ele>98.0</ele><time>2026-03-27T16:33:51.999Z</time></trkpt><trkpt lat="39.45086321300318" lon="15.992547352226902"><ele>103.33333333333333</ele><time>2026-03-27T16:33:52.999Z</time></trkpt><trkpt lat="39.45103489642558" lon="15.992443843479471"><ele>108.66666666666666</ele><time>2026-03-27T16:33:53.999Z</time></trkpt><trkpt lat="39.45117208441515" lon="15.992368658593184"><ele>114.0</ele><time>2026-03-27T16:33:54.999Z</time></trkpt><trkpt lat="39.451340894231194" lon="15.992270023157326"><ele>123.33333333333334</ele><time>2026-03-27T16:33:55.999Z</time></trkpt><trkpt lat="39.451507422303806" lon="15.992173125084742"><ele>132.66666666666669</ele><time>2026-03-27T16:33:56.999Z</time></trkpt><trkpt lat="39.451671425744046" lon="15.992076107250258"><ele>142.0</ele><time>2026-03-27T16:33:57.999Z</time></trkpt><trkpt lat="39.45183394107864" lon="15.991980608721668"><ele>142.0</ele><time>2026-03-27T16:33:58.999Z</time></trkpt><trkpt lat="39.451998097060994" lon="15.991886423858423"><ele>142.0</ele><time>2026-03-27T16:33:59.999Z</time></trkpt><trkpt lat="39.45215975003256" lon="15.991797398812986"><ele>142.0</ele><time>2026-03-27T16:34:00.999Z</time></trkpt><trkpt lat="39.452320199865774" lon="15.991710444644324"><ele>145.0</ele><time>2026-03-27T16:34:01.999Z</time></trkpt><trkpt lat="39.4524838470035" lon="15.991620936144844"><ele>148.0</ele><time>2026-03-27T16:34:02.999Z</time></trkpt><trkpt lat="39.45264769663236" lon="15.99152821941187"><ele>151.0</ele><time>2026-03-27T16:34:03.999Z</time></trkpt><trkpt lat="39.45281058884713" lon="15.991434892410176"><ele>153.0</ele><time>2026-03-27T16:34:04.999Z</time></trkpt><trkpt lat="39.45297501198773" lon="15.991342377542434"><ele>155.0</ele><time>2026-03-27T16:34:05.999Z</time></trkpt><trkpt lat="39.45314103722499" lon="15.99124895122607"><ele>157.0</ele><time>2026-03-27T16:34:06.999Z</time></trkpt><trkpt lat="39.453305153985546" lon="15.991157592344493"><ele>157.0</ele><time>2026-03-27T16:34:07.999Z</time></trkpt><trkpt lat="39.45346656431349" lon="15.991069895072034"><ele>157.0</ele><time>2026-03-27T16:34:08.999Z</time></trkpt><trkpt lat="39.453628440260786" lon="15.990980849678891"><ele>157.0</ele><time>2026-03-27T16:34:09.999Z</time></trkpt><trkpt lat="39.45378698211296" lon="15.990893201774226"><ele>157.66666666666669</ele><time>2026-03-27T16:34:10.999Z</time></trkpt><trkpt lat="39.45394385329063" lon="15.9908058896784"><ele>158.33333333333334</ele><time>2026-03-27T16:34:11.999Z</time></trkpt><trkpt lat="39.45410001109588" lon="15.990721198955573"><ele>159.0</ele><time>2026-03-27T16:34:12.999Z</time></trkpt><trkpt lat="39.45425456490466" lon="15.990635878139557"><ele>159.0</ele><time>2026-03-27T16:34:13.999Z</time></trkpt><trkpt lat="39.45441011668627" lon="15.990549864284349"><ele>159.0</ele><time>2026-03-27T16:34:14.999Z</time></trkpt><trkpt lat="39.45456564311042" lon="15.990463460373777"><ele>159.0</ele><time>2026-03-27T16:34:16.019Z</time></trkpt><trkpt lat="39.46204089302127" lon="15.98575442985706"><ele>124.0</ele><time>2026-03-27T16:34:58.999Z</time></trkpt><trkpt lat="39.46223731506909" lon="15.985595206148151"><ele>89.0</ele><time>2026-03-27T16:34:59.999Z</time></trkpt><trkpt lat="39.46242581317573" lon="15.985480896049102"><ele>54.0</ele><time>2026-03-27T16:35:00.999Z</time></trkpt><trkpt lat="39.462668128540194" lon="15.985354059435247"><ele>54.0</ele><time>2026-03-27T16:35:01.999Z</time></trkpt><trkpt lat="39.46289990503717" lon="15.985184328260889"><ele>54.0</ele><time>2026-03-27T16:35:02.999Z</time></trkpt><trkpt lat="39.46314227689258" lon="15.985006187068477"><ele>47.0</ele><time>2026-03-27T16:35:03.999Z</time></trkpt><trkpt lat="39.46337868076399" lon="15.984831818371129"><ele>40.0</ele><time>2026-03-27T16:35:04.999Z</time></trkpt><trkpt lat="39.46361608680009" lon="15.984637585191656"><ele>55.5</ele><time>2026-03-27T16:35:05.999Z</time></trkpt><trkpt lat="39.46386058623765" lon="15.984465224768575"><ele>71.0</ele><time>2026-03-27T16:35:06.999Z</time></trkpt><trkpt lat="39.4641048763688" lon="15.984287228745218"><ele>54.0</ele><time>2026-03-27T16:35:07.999Z</time></trkpt><trkpt lat="39.464355702439164" lon="15.984101943828271"><ele>37.0</ele><time>2026-03-27T16:35:08.999Z</time></trkpt><trkpt lat="39.464604035427946" lon="15.983914299373259"><ele>43.5</ele><time>2026-03-27T16:35:09.999Z</time></trkpt><trkpt lat="39.46485151982016" lon="15.983728028290427"><ele>50.0</ele><time>2026-03-27T16:35:10.999Z</time></trkpt><trkpt lat="39.465097155502484" lon="15.98354791032921"><ele>50.0</ele><time>2026-03-27T16:35:11.999Z</time></trkpt><trkpt lat="39.46534201228048" lon="15.983370320697828"><ele>50.0</ele><time>2026-03-27T16:35:12.999Z</time></trkpt><trkpt lat="39.46558874816101" lon="15.983193808505524"><ele>48.0</ele><time>2026-03-27T16:35:13.999Z</time></trkpt><trkpt lat="39.465829924683085" lon="15.983015659049897"><ele>46.0</ele><time>2026-03-27T16:35:14.999Z</time></trkpt><trkpt lat="39.46607019810348" lon="15.982841345897278"><ele>40.5</ele><time>2026-03-27T16:35:15.999Z</time></trkpt><trkpt lat="39.46630946930545" lon="15.98266860598609"><ele>35.0</ele><time>2026-03-27T16:35:16.999Z</time></trkpt><trkpt lat="39.466547809863705" lon="15.98249789603309"><ele>35.0</ele><time>2026-03-27T16:35:17.999Z</time></trkpt><trkpt lat="39.466786455407956" lon="15.982330686038715"><ele>35.0</ele><time>2026-03-27T16:35:18.999Z</time></trkpt><trkpt lat="39.46702831266329" lon="15.98216661553037"><ele>49.0</ele><time>2026-03-27T16:35:19.999Z</time></trkpt><trkpt lat="39.46727044591987" lon="15.98200313692651"><ele>63.0</ele><time>2026-03-27T16:35:20.999Z</time></trkpt><trkpt lat="39.46751230877155" lon="15.98184293945686"><ele>63.0</ele><time>2026-03-27T16:35:21.999Z</time></trkpt><trkpt lat="39.467753381773335" lon="15.981683541786762"><ele>63.0</ele><time>2026-03-27T16:35:22.999Z</time></trkpt><trkpt lat="39.46798918629711" lon="15.981528832024345"><ele>67.5</ele><time>2026-03-27T16:35:23.999Z</time></trkpt><trkpt lat="39.46821961882085" lon="15.98138207410914"><ele>72.0</ele><time>2026-03-27T16:35:24.999Z</time></trkpt><trkpt lat="39.46844117562034" lon="15.98124462503274"><ele>72.0</ele><time>2026-03-27T16:35:25.999Z</time></trkpt><trkpt lat="39.468653770567876" lon="15.981113515423306"><ele>72.0</ele><time>2026-03-27T16:35:26.999Z</time></trkpt><trkpt lat="39.46886237584439" lon="15.98098649241827"><ele>74.0</ele><time>2026-03-27T16:35:27.999Z</time></trkpt><trkpt lat="39.46906709571167" lon="15.980859565982325"><ele>76.0</ele><time>2026-03-27T16:35:28.999Z</time></trkpt><trkpt lat="39.46926884081173" lon="15.98073556447533"><ele>76.0</ele><time>2026-03-27T16:35:29.999Z</time></trkpt><trkpt lat="39.46946760350748" lon="15.980613632877455"><ele>76.0</ele><time>2026-03-27T16:35:30.999Z</time></trkpt><trkpt lat="39.46966451711181" lon="15.980492408606786"><ele>76.0</ele><time>2026-03-27T16:35:31.999Z</time></trkpt><trkpt lat="39.46985427537335" lon="15.98037616118755"><ele>83.0</ele><time>2026-03-27T16:35:32.999Z</time></trkpt><trkpt lat="39.470040072040106" lon="15.98026242125775"><ele>90.0</ele><time>2026-03-27T16:35:33.999Z</time></trkpt><trkpt lat="39.47022391315652" lon="15.980147483080785"><ele>97.0</ele><time>2026-03-27T16:35:34.999Z</time></trkpt><trkpt lat="39.4704002314913" lon="15.980038781438262"><ele>89.0</ele><time>2026-03-27T16:35:35.999Z</time></trkpt><trkpt lat="39.47056575452965" lon="15.979928852344967"><ele>81.0</ele><time>2026-03-27T16:35:36.999Z</time></trkpt><trkpt lat="39.470737974799434" lon="15.979822096809825"><ele>73.0</ele><time>2026-03-27T16:35:37.999Z</time></trkpt><trkpt lat="39.47090756174588" lon="15.979716671730346"><ele>73.0</ele><time>2026-03-27T16:35:38.999Z</time></trkpt><trkpt lat="39.47107549901756" lon="15.979611165584034"><ele>73.0</ele><time>2026-03-27T16:35:39.999Z</time></trkpt><trkpt lat="39.47123952941664" lon="15.979508647680115"><ele>73.0</ele><time>2026-03-27T16:35:40.999Z</time></trkpt><trkpt lat="39.47140583268459" lon="15.979405423120573"><ele>62.33333333333333</ele><time>2026-03-27T16:35:41.999Z</time></trkpt><trkpt lat="39.471554887528164" lon="15.97929006504041"><ele>51.666666666666664</ele><time>2026-03-27T16:35:42.999Z</time></trkpt><trkpt lat="39.471711431917356" lon="15.979213606034318"><ele>41.0</ele><time>2026-03-27T16:35:43.999Z</time></trkpt><trkpt lat="39.47188798646262" lon="15.979087630421867"><ele>41.33333333333333</ele><time>2026-03-27T16:35:44.999Z</time></trkpt><trkpt lat="39.47205444148591" lon="15.978979194864205"><ele>41.666666666666664</ele><time>2026-03-27T16:35:45.999Z</time></trkpt><trkpt lat="39.47221410846885" lon="15.978861303656087"><ele>42.0</ele><time>2026-03-27T16:35:46.999Z</time></trkpt><trkpt lat="39.47236705701001" lon="15.978731486259315"><ele>42.0</ele><time>2026-03-27T16:35:47.999Z</time></trkpt><trkpt lat="39.4725104028023" lon="15.978590396984346"><ele>42.0</ele><time>2026-03-27T16:35:48.999Z</time></trkpt><trkpt lat="39.47264644602427" lon="15.978446750520433"><ele>42.0</ele><time>2026-03-27T16:35:49.999Z</time></trkpt><trkpt lat="39.47277719526258" lon="15.978299297539051"><ele>40.666666666666664</ele><time>2026-03-27T16:35:50.999Z</time></trkpt><trkpt lat="39.47290088848264" lon="15.978144287471792"><ele>39.33333333333333</ele><time>2026-03-27T16:35:51.999Z</time></trkpt><trkpt lat="39.47301348076047" lon="15.977981678323486"><ele>38.0</ele><time>2026-03-27T16:35:52.999Z</time></trkpt><trkpt lat="39.47311344015676" lon="15.977804201964501"><ele>43.666666666666664</ele><time>2026-03-27T16:35:53.999Z</time></trkpt><trkpt lat="39.47320865614435" lon="15.977616426305378"><ele>49.33333333333333</ele><time>2026-03-27T16:35:54.999Z</time></trkpt><trkpt lat="39.473293803712984" lon="15.977418961722146"><ele>55.0</ele><time>2026-03-27T16:35:55.999Z</time></trkpt><trkpt lat="39.47337969509677" lon="15.977218230082926"><ele>55.0</ele><time>2026-03-27T16:35:56.999Z</time></trkpt><trkpt lat="39.473459258800034" lon="15.977012631746248"><ele>55.0</ele><time>2026-03-27T16:35:57.999Z</time></trkpt><trkpt lat="39.473532868649066" lon="15.976802201723837"><ele>55.0</ele><time>2026-03-27T16:35:58.999Z</time></trkpt><trkpt lat="39.47359725893068" lon="15.976585406231255"><ele>63.33333333333333</ele><time>2026-03-27T16:35:59.999Z</time></trkpt><trkpt lat="39.47365313701444" lon="15.976360997060043"><ele>71.66666666666667</ele><time>2026-03-27T16:36:00.999Z</time></trkpt><trkpt lat="39.473701433036084" lon="15.976131291007102"><ele>80.0</ele><time>2026-03-27T16:36:01.999Z</time></trkpt><trkpt lat="39.4737412529237" lon="15.975894237218242"><ele>84.66666666666667</ele><time>2026-03-27T16:36:02.999Z</time></trkpt><trkpt lat="39.473774786648015" lon="15.97565570441148"><ele>89.33333333333333</ele><time>2026-03-27T16:36:03.999Z</time></trkpt><trkpt lat="39.473801430026306" lon="15.975414888024522"><ele>94.0</ele><time>2026-03-27T16:36:04.999Z</time></trkpt><trkpt lat="39.473765880833675" lon="15.975268080695992"><ele>94.0</ele><time>2026-03-27T16:36:05.999Z</time></trkpt><trkpt lat="39.47376693264999" lon="15.975039954146808"><ele>94.0</ele><time>2026-03-27T16:36:06.999Z</time></trkpt><trkpt lat="39.4737637254295" lon="15.974810728145936"><ele>94.0</ele><time>2026-03-27T16:36:07.999Z</time></trkpt><trkpt lat="39.47376045734586" lon="15.974586304273062"><ele>96.66666666666666</ele><time>2026-03-27T16:36:08.999Z</time></trkpt><trkpt lat="39.473761618079685" lon="15.974367881645355"><ele>99.33333333333333</ele><time>2026-03-27T16:36:09.999Z</time></trkpt><trkpt lat="39.473763388945024" lon="15.974139882130464"><ele>102.0</ele><time>2026-03-27T16:36:10.999Z</time></trkpt><trkpt lat="39.47376428348941" lon="15.973914588905043"><ele>107.66666666666666</ele><time>2026-03-27T16:36:11.999Z</time></trkpt><trkpt lat="39.47376389302272" lon="15.97369038815335"><ele>113.33333333333333</ele><time>2026-03-27T16:36:12.999Z</time></trkpt><trkpt lat="39.47376296474299" lon="15.973470916932696"><ele>119.0</ele><time>2026-03-27T16:36:13.999Z</time></trkpt><trkpt lat="39.47376334732697" lon="15.973258330989164"><ele>121.66666666666666</ele><time>2026-03-27T16:36:14.999Z</time></trkpt><trkpt lat="39.473763849585076" lon="15.973041374390757"><ele>124.33333333333334</ele><time>2026-03-27T16:36:15.999Z</time></trkpt><trkpt lat="39.47376451208804" lon="15.972823667148962"><ele>127.0</ele><time>2026-03-27T16:36:16.999Z</time></trkpt><trkpt lat="39.473764987842316" lon="15.972603841128949"><ele>126.0</ele><time>2026-03-27T16:36:17.999Z</time></trkpt><trkpt lat="39.47376418999121" lon="15.972379367009873"><ele>125.0</ele><time>2026-03-27T16:36:18.999Z</time></trkpt><trkpt lat="39.473762356132255" lon="15.972155252134918"><ele>124.0</ele><time>2026-03-27T16:36:19.999Z</time></trkpt><trkpt lat="39.47376157711211" lon="15.971931691659954"><ele>124.0</ele><time>2026-03-27T16:36:20.999Z</time></trkpt><trkpt lat="39.473760668879834" lon="15.97170681781487"><ele>124.0</ele><time>2026-03-27T16:36:21.999Z</time></trkpt><trkpt lat="39.47375854802317" lon="15.971482457130229"><ele>124.0</ele><time>2026-03-27T16:36:22.999Z</time></trkpt><trkpt lat="39.47375810753274" lon="15.97125845712417"><ele>121.33333333333334</ele><time>2026-03-27T16:36:23.999Z</time></trkpt><trkpt lat="39.47375790230614" lon="15.971037051027263"><ele>118.66666666666666</ele><time>2026-03-27T16:36:24.999Z</time></trkpt><trkpt lat="39.473758145050766" lon="15.970817998378717"><ele>116.0</ele><time>2026-03-27T16:36:25.999Z</time></trkpt><trkpt lat="39.47375947700638" lon="15.970607321614729"><ele>112.0</ele><time>2026-03-27T16:36:26.999Z</time></trkpt><trkpt lat="39.47376093920895" lon="15.970391624601781"><ele>108.0</ele><time>2026-03-27T16:36:27.999Z</time></trkpt><trkpt lat="39.47376092934881" lon="15.97018452653678"><ele>104.0</ele><time>2026-03-27T16:36:28.999Z</time></trkpt><trkpt lat="39.473758652282875" lon="15.969975744615908"><ele>87.0</ele><time>2026-03-27T16:36:30.02Z</time></trkpt><trkpt lat="39.47381301449308" lon="15.96740580623954"><ele>87.0</ele><time>2026-03-27T16:36:33.729Z</time></trkpt><trkpt lat="39.473977181778174" lon="15.966742784795132"><ele>77.5</ele><time>2026-03-27T16:36:34.728Z</time></trkpt><trkpt lat="39.47406952424981" lon="15.966622711149174"><ele>68.0</ele><time>2026-03-27T16:36:47.711Z</time></trkpt><trkpt lat="39.47471822727801" lon="15.965632795808824"><ele>68.0</ele><time>2026-03-27T16:36:48.999Z</time></trkpt><trkpt lat="39.474811219104055" lon="15.965451700955313"><ele>68.0</ele><time>2026-03-27T16:36:49.999Z</time></trkpt><trkpt lat="39.47482725948212" lon="15.965292313407533"><ele>68.0</ele><time>2026-03-27T16:36:50.999Z</time></trkpt><trkpt lat="39.47486130868519" lon="15.965104192806157"><ele>68.0</ele><time>2026-03-27T16:36:51.999Z</time></trkpt><trkpt lat="39.47493977715188" lon="15.96491467273204"><ele>60.333333333333336</ele><time>2026-03-27T16:36:52.999Z</time></trkpt><trkpt lat="39.47503816540234" lon="15.964725744210607"><ele>52.66666666666667</ele><time>2026-03-27T16:36:53.999Z</time></trkpt><trkpt lat="39.47513204405539" lon="15.964543792659189"><ele>45.0</ele><time>2026-03-27T16:36:54.999Z</time></trkpt><trkpt lat="39.47522750048823" lon="15.964358294077751"><ele>41.0</ele><time>2026-03-27T16:36:55.999Z</time></trkpt><trkpt lat="39.47532445081041" lon="15.964175443678403"><ele>37.0</ele><time>2026-03-27T16:36:56.999Z</time></trkpt><trkpt lat="39.47542575190352" lon="15.963996268753082"><ele>33.0</ele><time>2026-03-27T16:36:57.999Z</time></trkpt><trkpt lat="39.47553317550211" lon="15.963824242757763"><ele>40.66666666666667</ele><time>2026-03-27T16:36:58.999Z</time></trkpt><trkpt lat="39.475648489061996" lon="15.9636578593195"><ele>48.333333333333336</ele><time>2026-03-27T16:36:59.999Z</time></trkpt><trkpt lat="39.475774405045904" lon="15.963503854631416"><ele>56.0</ele><time>2026-03-27T16:37:00.999Z</time></trkpt><trkpt lat="39.47590393239352" lon="15.963354210474737"><ele>56.0</ele><time>2026-03-27T16:37:01.999Z</time></trkpt><trkpt lat="39.47603735586344" lon="15.963212251172544"><ele>56.0</ele><time>2026-03-27T16:37:02.999Z</time></trkpt><trkpt lat="39.476173313416794" lon="15.96307826478092"><ele>56.0</ele><time>2026-03-27T16:37:03.999Z</time></trkpt><trkpt lat="39.47631399430843" lon="15.962952536049343"><ele>56.66666666666667</ele><time>2026-03-27T16:37:04.999Z</time></trkpt><trkpt lat="39.47645824293628" lon="15.962831595332375"><ele>57.33333333333333</ele><time>2026-03-27T16:37:05.999Z</time></trkpt><trkpt lat="39.47659849825671" lon="15.962723357330347"><ele>58.0</ele><time>2026-03-27T16:37:06.999Z</time></trkpt><trkpt lat="39.476758411952424" lon="15.962628953667652"><ele>58.0</ele><time>2026-03-27T16:37:07.999Z</time></trkpt><trkpt lat="39.47689682590342" lon="15.962546395210273"><ele>58.0</ele><time>2026-03-27T16:37:08.999Z</time></trkpt><trkpt lat="39.47702972018379" lon="15.962477218472502"><ele>58.0</ele><time>2026-03-27T16:37:09.999Z</time></trkpt><trkpt lat="39.477153268827" lon="15.962410253509711"><ele>58.0</ele><time>2026-03-27T16:37:10.999Z</time></trkpt><trkpt lat="39.477268039892245" lon="15.962352664159468"><ele>53.8</ele><time>2026-03-27T16:37:11.999Z</time></trkpt><trkpt lat="39.47737638561676" lon="15.962298999631873"><ele>49.599999999999994</ele><time>2026-03-27T16:37:12.999Z</time></trkpt><trkpt lat="39.47747647497472" lon="15.962248531561741"><ele>45.400000000000006</ele><time>2026-03-27T16:37:13.999Z</time></trkpt><trkpt lat="39.4775728848355" lon="15.96220391160801"><ele>41.2</ele><time>2026-03-27T16:37:14.999Z</time></trkpt><trkpt lat="39.477660746513145" lon="15.962160744274692"><ele>37.0</ele><time>2026-03-27T16:37:15.999Z</time></trkpt><trkpt lat="39.477740754445364" lon="15.962121353161812"><ele>37.0</ele><time>2026-03-27T16:37:16.999Z</time></trkpt><trkpt lat="39.4778168265933" lon="15.962085499642113"><ele>37.0</ele><time>2026-03-27T16:37:17.999Z</time></trkpt><trkpt lat="39.47788177825823" lon="15.962054477653426"><ele>37.0</ele><time>2026-03-27T16:37:18.999Z</time></trkpt><trkpt lat="39.47797709984687" lon="15.962004263477358"><ele>37.0</ele><time>2026-03-27T16:37:20.999Z</time></trkpt><trkpt lat="39.47804863995677" lon="15.96197056019473"><ele>37.0</ele><time>2026-03-27T16:37:22.999Z</time></trkpt><trkpt lat="39.4781226389261" lon="15.961935627432762"><ele>37.0</ele><time>2026-03-27T16:37:25.999Z</time></trkpt><trkpt lat="39.478186708606216" lon="15.961904004019969"><ele>36.4</ele><time>2026-03-27T16:38:42.999Z</time></trkpt><trkpt lat="39.478248980831815" lon="15.96187170256022"><ele>35.800000000000004</ele><time>2026-03-27T16:38:44.999Z</time></trkpt><trkpt lat="39.478326835140905" lon="15.961830866368398"><ele>35.2</ele><time>2026-03-27T16:38:47Z</time></trkpt><trkpt lat="39.47844802182774" lon="15.961767481933279"><ele>34.6</ele><time>2026-03-27T16:38:49Z</time></trkpt><trkpt lat="39.47852320083841" lon="15.96172783973816"><ele>34.0</ele><time>2026-03-27T16:38:50Z</time></trkpt><trkpt lat="39.47860650025729" lon="15.961687894102406"><ele>34.0</ele><time>2026-03-27T16:38:51Z</time></trkpt><trkpt lat="39.47868483338712" lon="15.961648255825631"><ele>34.0</ele><time>2026-03-27T16:38:52Z</time></trkpt><trkpt lat="39.4787752108558" lon="15.96160545494368"><ele>34.0</ele><time>2026-03-27T16:38:53Z</time></trkpt><trkpt lat="39.47886910962608" lon="15.961561548918855"><ele>34.0</ele><time>2026-03-27T16:38:54Z</time></trkpt><trkpt lat="39.47896390838709" lon="15.96151548510504"><ele>34.0</ele><time>2026-03-27T16:38:55Z</time></trkpt><trkpt lat="39.47906137174313" lon="15.961467305261507"><ele>35.6</ele><time>2026-03-27T16:38:56Z</time></trkpt><trkpt lat="39.479160600184436" lon="15.961418682645501"><ele>37.2</ele><time>2026-03-27T16:38:57Z</time></trkpt><trkpt lat="39.479262188893586" lon="15.96136920295134"><ele>38.800000000000004</ele><time>2026-03-27T16:38:58Z</time></trkpt><trkpt lat="39.47936601989665" lon="15.961317585413939"><ele>40.4</ele><time>2026-03-27T16:38:59Z</time></trkpt><trkpt lat="39.47947207146974" lon="15.961264620331637"><ele>42.0</ele><time>2026-03-27T16:39:00Z</time></trkpt><trkpt lat="39.47957907338447" lon="15.961210950792173"><ele>44.0</ele><time>2026-03-27T16:39:01Z</time></trkpt><trkpt lat="39.479685258818414" lon="15.961155433666654"><ele>46.0</ele><time>2026-03-27T16:39:02Z</time></trkpt><trkpt lat="39.479791991068225" lon="15.961093759853506"><ele>48.0</ele><time>2026-03-27T16:39:03Z</time></trkpt><trkpt lat="39.47989890436587" lon="15.96102572864853"><ele>50.0</ele><time>2026-03-27T16:39:04Z</time></trkpt><trkpt lat="39.48000541218486" lon="15.96095682650287"><ele>50.0</ele><time>2026-03-27T16:39:05Z</time></trkpt><trkpt lat="39.480114264679756" lon="15.960886663410143"><ele>50.0</ele><time>2026-03-27T16:39:06Z</time></trkpt><trkpt lat="39.48022413522582" lon="15.96081451071275"><ele>50.0</ele><time>2026-03-27T16:39:07Z</time></trkpt><trkpt lat="39.48033507350271" lon="15.960742075646527"><ele>50.0</ele><time>2026-03-27T16:39:08Z</time></trkpt><trkpt lat="39.48044757722913" lon="15.96066707543263"><ele>48.25</ele><time>2026-03-27T16:39:09Z</time></trkpt><trkpt lat="39.480562486528946" lon="15.960589145228967"><ele>46.5</ele><time>2026-03-27T16:39:10Z</time></trkpt><trkpt lat="39.480678540527386" lon="15.96050980705178"><ele>44.75</ele><time>2026-03-27T16:39:11Z</time></trkpt><trkpt lat="39.480793368121404" lon="15.960432172785273"><ele>43.0</ele><time>2026-03-27T16:39:12Z</time></trkpt><trkpt lat="39.48090914357748" lon="15.960353058992682"><ele>43.0</ele><time>2026-03-27T16:39:13Z</time></trkpt><trkpt lat="39.481026244386705" lon="15.960272751500627"><ele>43.0</ele><time>2026-03-27T16:39:14Z</time></trkpt><trkpt lat="39.48114285365769" lon="15.96019240730286"><ele>43.0</ele><time>2026-03-27T16:39:15Z</time></trkpt><trkpt lat="39.48125860931629" lon="15.960113435477403"><ele>43.0</ele><time>2026-03-27T16:39:16Z</time></trkpt><trkpt lat="39.48137150556088" lon="15.96003470762754"><ele>39.25</ele><time>2026-03-27T16:39:17Z</time></trkpt><trkpt lat="39.481485780950344" lon="15.959955486622325"><ele>35.5</ele><time>2026-03-27T16:39:18Z</time></trkpt><trkpt lat="39.48159892751587" lon="15.95987634342915"><ele>31.75</ele><time>2026-03-27T16:39:19Z</time></trkpt><trkpt lat="39.48171270495348" lon="15.959796824188073"><ele>28.0</ele><time>2026-03-27T16:39:20Z</time></trkpt><trkpt lat="39.48182954912347" lon="15.959714512248652"><ele>28.0</ele><time>2026-03-27T16:39:21Z</time></trkpt><trkpt lat="39.48194489691013" lon="15.959630667962603"><ele>28.0</ele><time>2026-03-27T16:39:22Z</time></trkpt><trkpt lat="39.48206097611217" lon="15.959546298978095"><ele>28.0</ele><time>2026-03-27T16:39:23Z</time></trkpt><trkpt lat="39.48218077214776" lon="15.959461037994652"><ele>28.0</ele><time>2026-03-27T16:39:24Z</time></trkpt><trkpt lat="39.482303497497774" lon="15.959376705833058"><ele>28.5</ele><time>2026-03-27T16:39:25Z</time></trkpt><trkpt lat="39.48242687877432" lon="15.959294885229978"><ele>29.0</ele><time>2026-03-27T16:39:26Z</time></trkpt><trkpt lat="39.48255068131874" lon="15.959210712097386"><ele>29.5</ele><time>2026-03-27T16:39:27Z</time></trkpt><trkpt lat="39.48267665353703" lon="15.959124554807842"><ele>30.0</ele><time>2026-03-27T16:39:28Z</time></trkpt><trkpt lat="39.48280268780883" lon="15.959039235306223"><ele>27.0</ele><time>2026-03-27T16:39:29Z</time></trkpt><trkpt lat="39.48292891435149" lon="15.958951490728822"><ele>24.0</ele><time>2026-03-27T16:39:30Z</time></trkpt><trkpt lat="39.48305685824165" lon="15.958862016467714"><ele>21.0</ele><time>2026-03-27T16:39:31Z</time></trkpt><trkpt lat="39.4831865130739" lon="15.958771880713396"><ele>18.0</ele><time>2026-03-27T16:39:32Z</time></trkpt><trkpt lat="39.48331609097194" lon="15.958679730330507"><ele>18.0</ele><time>2026-03-27T16:39:33Z</time></trkpt><trkpt lat="39.483447935429304" lon="15.958586173383264"><ele>18.0</ele><time>2026-03-27T16:39:34Z</time></trkpt><trkpt lat="39.48357930152535" lon="15.958495218987716"><ele>18.0</ele><time>2026-03-27T16:39:35Z</time></trkpt><trkpt lat="39.483710280166704" lon="15.958404441827408"><ele>18.0</ele><time>2026-03-27T16:39:36Z</time></trkpt><trkpt lat="39.48384255781326" lon="15.958312494947489"><ele>16.0</ele><time>2026-03-27T16:39:37Z</time></trkpt><trkpt lat="39.48397549033154" lon="15.958220497097965"><ele>14.0</ele><time>2026-03-27T16:39:38Z</time></trkpt><trkpt lat="39.48410804653934" lon="15.958131513178692"><ele>12.0</ele><time>2026-03-27T16:39:39Z</time></trkpt><trkpt lat="39.48424357874068" lon="15.958045999811926"><ele>12.0</ele><time>2026-03-27T16:39:40Z</time></trkpt><trkpt lat="39.48438417780227" lon="15.957960443254402"><ele>12.0</ele><time>2026-03-27T16:39:41Z</time></trkpt><trkpt lat="39.48452750592671" lon="15.957878421171964"><ele>12.0</ele><time>2026-03-27T16:39:42Z</time></trkpt><trkpt lat="39.48467172719721" lon="15.957799228999573"><ele>13.666666666666668</ele><time>2026-03-27T16:39:43Z</time></trkpt><trkpt lat="39.484815655312644" lon="15.957721048225782"><ele>15.333333333333334</ele><time>2026-03-27T16:39:44Z</time></trkpt><trkpt lat="39.48496043627681" lon="15.957646887691999"><ele>17.0</ele><time>2026-03-27T16:39:45Z</time></trkpt><trkpt lat="39.485103682359004" lon="15.957574923970373"><ele>18.0</ele><time>2026-03-27T16:39:46Z</time></trkpt><trkpt lat="39.485244190299376" lon="15.957504074756732"><ele>19.0</ele><time>2026-03-27T16:39:47Z</time></trkpt><trkpt lat="39.48538207670312" lon="15.957431092811984"><ele>20.0</ele><time>2026-03-27T16:39:48Z</time></trkpt><trkpt lat="39.485517250623104" lon="15.957360540330786"><ele>21.0</ele><time>2026-03-27T16:39:49Z</time></trkpt><trkpt lat="39.48565230915574" lon="15.957289779900481"><ele>21.0</ele><time>2026-03-27T16:39:50Z</time></trkpt><trkpt lat="39.485790564053445" lon="15.95721254175302"><ele>21.0</ele><time>2026-03-27T16:39:51Z</time></trkpt><trkpt lat="39.485933233049956" lon="15.957125543482732"><ele>21.0</ele><time>2026-03-27T16:39:52Z</time></trkpt><trkpt lat="39.486075796430896" lon="15.95702949240661"><ele>21.0</ele><time>2026-03-27T16:39:53Z</time></trkpt><trkpt lat="39.48621269949727" lon="15.956930011771023"><ele>21.0</ele><time>2026-03-27T16:39:54Z</time></trkpt><trkpt lat="39.486344517436756" lon="15.956822025112118"><ele>21.0</ele><time>2026-03-27T16:39:55Z</time></trkpt><trkpt lat="39.48647420333812" lon="15.956710310058698"><ele>23.0</ele><time>2026-03-27T16:39:56Z</time></trkpt><trkpt lat="39.486600071048976" lon="15.956590527410253"><ele>25.0</ele><time>2026-03-27T16:39:57Z</time></trkpt><trkpt lat="39.486727734441175" lon="15.956462939069686"><ele>27.0</ele><time>2026-03-27T16:39:58Z</time></trkpt><trkpt lat="39.48685140898634" lon="15.95633233985932"><ele>27.0</ele><time>2026-03-27T16:39:59Z</time></trkpt><trkpt lat="39.486970457838694" lon="15.956198243624208"><ele>27.0</ele><time>2026-03-27T16:40:00Z</time></trkpt><trkpt lat="39.48708660911736" lon="15.956063744292305"><ele>27.0</ele><time>2026-03-27T16:40:01Z</time></trkpt><trkpt lat="39.48719880367575" lon="15.95593013749162"><ele>28.333333333333336</ele><time>2026-03-27T16:40:02Z</time></trkpt><trkpt lat="39.48731632964101" lon="15.955798395408596"><ele>29.666666666666668</ele><time>2026-03-27T16:40:03Z</time></trkpt><trkpt lat="39.48743005024645" lon="15.955677197558915"><ele>31.0</ele><time>2026-03-27T16:40:04Z</time></trkpt><trkpt lat="39.487548163291244" lon="15.955552740341291"><ele>31.0</ele><time>2026-03-27T16:40:05Z</time></trkpt><trkpt lat="39.48767708130495" lon="15.955431790736137"><ele>31.0</ele><time>2026-03-27T16:40:06Z</time></trkpt><trkpt lat="39.48781183600668" lon="15.955315119043393"><ele>31.0</ele><time>2026-03-27T16:40:07Z</time></trkpt><trkpt lat="39.487951789510866" lon="15.95521515392035"><ele>29.0</ele><time>2026-03-27T16:40:08Z</time></trkpt><trkpt lat="39.48809597410279" lon="15.95512731276291"><ele>27.0</ele><time>2026-03-27T16:40:09Z</time></trkpt><trkpt lat="39.48824578249208" lon="15.955047543431641"><ele>25.0</ele><time>2026-03-27T16:40:10Z</time></trkpt><trkpt lat="39.48840550111987" lon="15.954974148810996"><ele>25.0</ele><time>2026-03-27T16:40:11Z</time></trkpt><trkpt lat="39.48856815832982" lon="15.954906325302318"><ele>25.0</ele><time>2026-03-27T16:40:12Z</time></trkpt><trkpt lat="39.48874479444814" lon="15.954854402028745"><ele>25.0</ele><time>2026-03-27T16:40:13Z</time></trkpt><trkpt lat="39.488929888482424" lon="15.954789715529094"><ele>30.333333333333336</ele><time>2026-03-27T16:40:14Z</time></trkpt><trkpt lat="39.489129269840134" lon="15.95471793673744"><ele>35.666666666666664</ele><time>2026-03-27T16:40:15Z</time></trkpt><trkpt lat="39.48934018361599" lon="15.95463638832523"><ele>41.0</ele><time>2026-03-27T16:40:16Z</time></trkpt><trkpt lat="39.489552392033474" lon="15.954535857360462"><ele>47.0</ele><time>2026-03-27T16:40:17Z</time></trkpt><trkpt lat="39.48976359446014" lon="15.954455117304358"><ele>53.0</ele><time>2026-03-27T16:40:18Z</time></trkpt><trkpt lat="39.489975484572014" lon="15.954370195926893"><ele>59.0</ele><time>2026-03-27T16:40:19Z</time></trkpt><trkpt lat="39.490194395495934" lon="15.954279398577029"><ele>45.5</ele><time>2026-03-27T16:40:20Z</time></trkpt><trkpt lat="39.49041971899233" lon="15.954184863765361"><ele>32.0</ele><time>2026-03-27T16:40:21Z</time></trkpt><trkpt lat="39.49064817668866" lon="15.954089332541443"><ele>32.0</ele><time>2026-03-27T16:40:22Z</time></trkpt><trkpt lat="39.49087653568748" lon="15.953994046285116"><ele>32.0</ele><time>2026-03-27T16:40:23Z</time></trkpt><trkpt lat="39.49110451386996" lon="15.953893266345169"><ele>37.5</ele><time>2026-03-27T16:40:24Z</time></trkpt><trkpt lat="39.49133625570887" lon="15.953788032652634"><ele>43.0</ele><time>2026-03-27T16:40:25Z</time></trkpt><trkpt lat="39.491577016069726" lon="15.953700651983052"><ele>43.0</ele><time>2026-03-27T16:40:26Z</time></trkpt><trkpt lat="39.49181803225113" lon="15.953584940206895"><ele>43.0</ele><time>2026-03-27T16:40:27Z</time></trkpt><trkpt lat="39.49205464040948" lon="15.953453854227396"><ele>35.5</ele><time>2026-03-27T16:40:28Z</time></trkpt><trkpt lat="39.49228914575164" lon="15.953321646113336"><ele>28.0</ele><time>2026-03-27T16:40:29Z</time></trkpt><trkpt lat="39.49252258061486" lon="15.953183850897519"><ele>28.0</ele><time>2026-03-27T16:40:30Z</time></trkpt><trkpt lat="39.49276498421577" lon="15.95307626635142"><ele>28.0</ele><time>2026-03-27T16:40:31Z</time></trkpt><trkpt lat="39.49300868078896" lon="15.952969454438477"><ele>37.0</ele><time>2026-03-27T16:40:32Z</time></trkpt><trkpt lat="39.49325364852931" lon="15.95286738963313"><ele>46.0</ele><time>2026-03-27T16:40:33Z</time></trkpt><trkpt lat="39.4934974037818" lon="15.952763892136106"><ele>46.0</ele><time>2026-03-27T16:40:34Z</time></trkpt><trkpt lat="39.49373955888428" lon="15.952655641792182"><ele>46.0</ele><time>2026-03-27T16:40:35Z</time></trkpt><trkpt lat="39.49398166608012" lon="15.952549474479326"><ele>34.5</ele><time>2026-03-27T16:40:36Z</time></trkpt><trkpt lat="39.49422248915243" lon="15.952446498687804"><ele>23.0</ele><time>2026-03-27T16:40:37Z</time></trkpt><trkpt lat="39.49446283998805" lon="15.952342988430726"><ele>30.5</ele><time>2026-03-27T16:40:38Z</time></trkpt><trkpt lat="39.494701417349646" lon="15.952238242412509"><ele>38.0</ele><time>2026-03-27T16:40:39Z</time></trkpt><trkpt lat="39.49493818237983" lon="15.952135027590025"><ele>38.0</ele><time>2026-03-27T16:40:40Z</time></trkpt><trkpt lat="39.49517409351266" lon="15.952029601095088"><ele>38.0</ele><time>2026-03-27T16:40:41Z</time></trkpt><trkpt lat="39.49540849712932" lon="15.951918574834648"><ele>40.5</ele><time>2026-03-27T16:40:42Z</time></trkpt><trkpt lat="39.495642091830845" lon="15.951795845701563"><ele>43.0</ele><time>2026-03-27T16:40:43Z</time></trkpt><trkpt lat="39.49587773317555" lon="15.951664869338039"><ele>30.0</ele><time>2026-03-27T16:40:44Z</time></trkpt><trkpt lat="39.49611439334379" lon="15.951528957819214"><ele>17.0</ele><time>2026-03-27T16:40:45Z</time></trkpt><trkpt lat="39.49634895507029" lon="15.95138919817888"><ele>17.0</ele><time>2026-03-27T16:40:46Z</time></trkpt><trkpt lat="39.49658106309036" lon="15.951246092732529"><ele>17.0</ele><time>2026-03-27T16:40:47Z</time></trkpt><trkpt lat="39.496812953030506" lon="15.951103524597922"><ele>17.0</ele><time>2026-03-27T16:40:48Z</time></trkpt><trkpt lat="39.49704423652072" lon="15.950959731585286"><ele>17.0</ele><time>2026-03-27T16:40:49Z</time></trkpt><trkpt lat="39.49727625673099" lon="15.950817917400299"><ele>16.5</ele><time>2026-03-27T16:40:50Z</time></trkpt><trkpt lat="39.49750688370026" lon="15.950675031310851"><ele>16.0</ele><time>2026-03-27T16:40:51Z</time></trkpt><trkpt lat="39.49773726701897" lon="15.950532482892614"><ele>16.0</ele><time>2026-03-27T16:40:52Z</time></trkpt><trkpt lat="39.49796701623511" lon="15.950390771275933"><ele>16.0</ele><time>2026-03-27T16:40:53Z</time></trkpt><trkpt lat="39.49819636007794" lon="15.9502486184056"><ele>16.0</ele><time>2026-03-27T16:40:54Z</time></trkpt><trkpt lat="39.49842527120316" lon="15.950106660964016"><ele>16.0</ele><time>2026-03-27T16:40:55Z</time></trkpt><trkpt lat="39.49865429111015" lon="15.949965476294524"><ele>13.5</ele><time>2026-03-27T16:40:56Z</time></trkpt><trkpt lat="39.4988835427945" lon="15.949823947605553"><ele>11.0</ele><time>2026-03-27T16:40:57Z</time></trkpt><trkpt lat="39.49911175025866" lon="15.949682118002857"><ele>11.0</ele><time>2026-03-27T16:40:58Z</time></trkpt><trkpt lat="39.499339974506114" lon="15.949540212200139"><ele>11.0</ele><time>2026-03-27T16:40:59Z</time></trkpt><trkpt lat="39.4995674359477" lon="15.949398225123677"><ele>12.0</ele><time>2026-03-27T16:41:00Z</time></trkpt><trkpt lat="39.499795007976644" lon="15.949256665756938"><ele>13.0</ele><time>2026-03-27T16:41:01Z</time></trkpt><trkpt lat="39.50002075074167" lon="15.949113414574764"><ele>13.0</ele><time>2026-03-27T16:41:02Z</time></trkpt><trkpt lat="39.500247382355866" lon="15.948971188463064"><ele>13.0</ele><time>2026-03-27T16:41:03Z</time></trkpt><trkpt lat="39.500474560170325" lon="15.948828533863537"><ele>18.5</ele><time>2026-03-27T16:41:04Z</time></trkpt><trkpt lat="39.50070319024469" lon="15.948686436247419"><ele>24.0</ele><time>2026-03-27T16:41:05Z</time></trkpt><trkpt lat="39.50093405968315" lon="15.948542920745599"><ele>24.0</ele><time>2026-03-27T16:41:06Z</time></trkpt><trkpt lat="39.50116482330071" lon="15.948398903108325"><ele>24.0</ele><time>2026-03-27T16:41:07Z</time></trkpt><trkpt lat="39.501394830157366" lon="15.948254537665175"><ele>20.0</ele><time>2026-03-27T16:41:08Z</time></trkpt><trkpt lat="39.501625862244545" lon="15.948109267844357"><ele>16.0</ele><time>2026-03-27T16:41:09Z</time></trkpt><trkpt lat="39.50185934070596" lon="15.947963976693156"><ele>18.5</ele><time>2026-03-27T16:41:10Z</time></trkpt><trkpt lat="39.50209625210415" lon="15.947816930793207"><ele>21.0</ele><time>2026-03-27T16:41:11Z</time></trkpt><trkpt lat="39.50234088193342" lon="15.947662273656357"><ele>17.0</ele><time>2026-03-27T16:41:12Z</time></trkpt><trkpt lat="39.502588045111295" lon="15.947501435342396"><ele>13.0</ele><time>2026-03-27T16:41:13Z</time></trkpt><trkpt lat="39.50282893310618" lon="15.947341747208194"><ele>13.5</ele><time>2026-03-27T16:41:14Z</time></trkpt><trkpt lat="39.50306838386659" lon="15.947182726590858"><ele>14.0</ele><time>2026-03-27T16:41:15Z</time></trkpt><trkpt lat="39.503304927013616" lon="15.947022671545648"><ele>14.0</ele><time>2026-03-27T16:41:16Z</time></trkpt><trkpt lat="39.503537357658004" lon="15.946862724040495"><ele>14.0</ele><time>2026-03-27T16:41:17Z</time></trkpt><trkpt lat="39.503765032877034" lon="15.946704892117696"><ele>13.5</ele><time>2026-03-27T16:41:18Z</time></trkpt><trkpt lat="39.50398895498926" lon="15.946551061078868"><ele>13.0</ele><time>2026-03-27T16:41:19Z</time></trkpt><trkpt lat="39.50421189709315" lon="15.94639914428428"><ele>13.0</ele><time>2026-03-27T16:41:20Z</time></trkpt><trkpt lat="39.50443447116586" lon="15.946247042691075"><ele>13.0</ele><time>2026-03-27T16:41:21Z</time></trkpt><trkpt lat="39.50465342579385" lon="15.94609680871815"><ele>12.5</ele><time>2026-03-27T16:41:22Z</time></trkpt><trkpt lat="39.50486867627774" lon="15.945953187427797"><ele>12.0</ele><time>2026-03-27T16:41:23Z</time></trkpt><trkpt lat="39.50507756108283" lon="15.945817929741777"><ele>11.333333333333334</ele><time>2026-03-27T16:41:24Z</time></trkpt><trkpt lat="39.50527944049977" lon="15.945697157161923"><ele>10.666666666666668</ele><time>2026-03-27T16:41:25Z</time></trkpt><trkpt lat="39.50547781399542" lon="15.945594605313465"><ele>10.0</ele><time>2026-03-27T16:41:26Z</time></trkpt><trkpt lat="39.5056738355763" lon="15.945506767056973"><ele>10.0</ele><time>2026-03-27T16:41:27Z</time></trkpt><trkpt lat="39.5058633532288" lon="15.945433916942065"><ele>10.0</ele><time>2026-03-27T16:41:28Z</time></trkpt><trkpt lat="39.50604506269007" lon="15.945372009631361"><ele>10.0</ele><time>2026-03-27T16:41:29Z</time></trkpt><trkpt lat="39.50622183323818" lon="15.945323053927982"><ele>11.333333333333334</ele><time>2026-03-27T16:41:30Z</time></trkpt><trkpt lat="39.50639667868552" lon="15.945280408004535"><ele>12.666666666666668</ele><time>2026-03-27T16:41:31Z</time></trkpt><trkpt lat="39.50656833512586" lon="15.945247388855686"><ele>14.0</ele><time>2026-03-27T16:41:32Z</time></trkpt><trkpt lat="39.506737795206206" lon="15.94522055538924"><ele>14.0</ele><time>2026-03-27T16:41:33Z</time></trkpt><trkpt lat="39.506904956980264" lon="15.945199680363853"><ele>14.0</ele><time>2026-03-27T16:41:34Z</time></trkpt><trkpt lat="39.507069676105154" lon="15.945179325330194"><ele>14.0</ele><time>2026-03-27T16:41:35Z</time></trkpt><trkpt lat="39.50723277947029" lon="15.945159894256879"><ele>14.666666666666668</ele><time>2026-03-27T16:41:36Z</time></trkpt><trkpt lat="39.507395310033544" lon="15.945142818971036"><ele>15.333333333333332</ele><time>2026-03-27T16:41:37Z</time></trkpt><trkpt lat="39.50755770909947" lon="15.945125424571156"><ele>16.0</ele><time>2026-03-27T16:41:38Z</time></trkpt><trkpt lat="39.507717002689255" lon="15.945104767492962"><ele>16.0</ele><time>2026-03-27T16:41:39Z</time></trkpt><trkpt lat="39.50787459284021" lon="15.945085101981432"><ele>16.0</ele><time>2026-03-27T16:41:40Z</time></trkpt><trkpt lat="39.50802953413124" lon="15.945065471978698"><ele>16.0</ele><time>2026-03-27T16:41:41Z</time></trkpt><trkpt lat="39.5081820040446" lon="15.94504576997436"><ele>15.25</ele><time>2026-03-27T16:41:42Z</time></trkpt><trkpt lat="39.50833170652701" lon="15.945027805102972"><ele>14.5</ele><time>2026-03-27T16:41:43Z</time></trkpt><trkpt lat="39.50847905006606" lon="15.94501005469522"><ele>13.75</ele><time>2026-03-27T16:41:44Z</time></trkpt><trkpt lat="39.50862325931131" lon="15.944992853106456"><ele>13.0</ele><time>2026-03-27T16:41:45Z</time></trkpt><trkpt lat="39.508766593354665" lon="15.944975472947283"><ele>13.0</ele><time>2026-03-27T16:41:46Z</time></trkpt><trkpt lat="39.50890975619537" lon="15.944956990674784"><ele>13.0</ele><time>2026-03-27T16:41:47Z</time></trkpt><trkpt lat="39.50905392266968" lon="15.944938371591345"><ele>13.0</ele><time>2026-03-27T16:41:48Z</time></trkpt><trkpt lat="39.50919777330865" lon="15.944919024854526"><ele>13.0</ele><time>2026-03-27T16:41:49Z</time></trkpt><trkpt lat="39.509341798840715" lon="15.9448993003495"><ele>13.0</ele><time>2026-03-27T16:41:50Z</time></trkpt><trkpt lat="39.5094867197376" lon="15.944877733294353"><ele>13.0</ele><time>2026-03-27T16:41:51Z</time></trkpt><trkpt lat="39.50963246365851" lon="15.944847958344635"><ele>13.0</ele><time>2026-03-27T16:41:52Z</time></trkpt><trkpt lat="39.50977947062542" lon="15.944808156845216"><ele>13.0</ele><time>2026-03-27T16:41:53Z</time></trkpt><trkpt lat="39.50992768664476" lon="15.944761219107992"><ele>17.0</ele><time>2026-03-27T16:41:54Z</time></trkpt><trkpt lat="39.51007560834353" lon="15.944707078841876"><ele>21.0</ele><time>2026-03-27T16:41:55Z</time></trkpt><trkpt lat="39.51022473893188" lon="15.944640743661537"><ele>25.0</ele><time>2026-03-27T16:41:56Z</time></trkpt><trkpt lat="39.51037753908739" lon="15.944565462095825"><ele>28.666666666666668</ele><time>2026-03-27T16:41:57Z</time></trkpt><trkpt lat="39.510533167674765" lon="15.944476156510865"><ele>32.333333333333336</ele><time>2026-03-27T16:41:58Z</time></trkpt><trkpt lat="39.510691858523096" lon="15.944371084751614"><ele>36.0</ele><time>2026-03-27T16:41:59Z</time></trkpt><trkpt lat="39.510846390195525" lon="15.944248154329694"><ele>32.0</ele><time>2026-03-27T16:42:00Z</time></trkpt><trkpt lat="39.510996297980874" lon="15.944117550495454"><ele>28.0</ele><time>2026-03-27T16:42:01Z</time></trkpt><trkpt lat="39.51114181310314" lon="15.94397647644936"><ele>24.0</ele><time>2026-03-27T16:42:02Z</time></trkpt><trkpt lat="39.51128087192437" lon="15.943823623031033"><ele>24.0</ele><time>2026-03-27T16:42:03Z</time></trkpt><trkpt lat="39.511418547791386" lon="15.94365875021936"><ele>24.0</ele><time>2026-03-27T16:42:04Z</time></trkpt><trkpt lat="39.511553403480484" lon="15.943494453216804"><ele>24.0</ele><time>2026-03-27T16:42:05Z</time></trkpt><trkpt lat="39.51168573353642" lon="15.943331874604102"><ele>20.333333333333332</ele><time>2026-03-27T16:42:06Z</time></trkpt><trkpt lat="39.511814801595385" lon="15.943173150314474"><ele>16.666666666666664</ele><time>2026-03-27T16:42:07Z</time></trkpt><trkpt lat="39.511935926908414" lon="15.94302450444634"><ele>13.0</ele><time>2026-03-27T16:42:08Z</time></trkpt><trkpt lat="39.51205133127371" lon="15.94288494906121"><ele>12.5</ele><time>2026-03-27T16:42:09Z</time></trkpt><trkpt lat="39.512163345584604" lon="15.942750633119664"><ele>12.0</ele><time>2026-03-27T16:42:10Z</time></trkpt><trkpt lat="39.512270225214536" lon="15.942619380718156"><ele>11.5</ele><time>2026-03-27T16:42:11Z</time></trkpt><trkpt lat="39.51236862320661" lon="15.942498311796031"><ele>11.0</ele><time>2026-03-27T16:42:12Z</time></trkpt><trkpt lat="39.512460417104045" lon="15.942383179703466"><ele>11.0</ele><time>2026-03-27T16:42:13Z</time></trkpt><trkpt lat="39.5125505279842" lon="15.942270952965726"><ele>11.0</ele><time>2026-03-27T16:42:14Z</time></trkpt><trkpt lat="39.512638576213" lon="15.942161082324548"><ele>11.0</ele><time>2026-03-27T16:42:15Z</time></trkpt><trkpt lat="39.51272519912446" lon="15.942054348691082"><ele>11.0</ele><time>2026-03-27T16:42:16Z</time></trkpt><trkpt lat="39.512809571721874" lon="15.941950954512953"><ele>11.0</ele><time>2026-03-27T16:42:17Z</time></trkpt><trkpt lat="39.512891217622006" lon="15.941850465091106"><ele>11.0</ele><time>2026-03-27T16:42:18Z</time></trkpt><trkpt lat="39.51297441446065" lon="15.941748523981977"><ele>11.0</ele><time>2026-03-27T16:42:19Z</time></trkpt><trkpt lat="39.51306242003025" lon="15.941642277557104"><ele>11.0</ele><time>2026-03-27T16:42:20Z</time></trkpt><trkpt lat="39.51315110408315" lon="15.941531141392899"><ele>11.5</ele><time>2026-03-27T16:42:21Z</time></trkpt><trkpt lat="39.51324391786648" lon="15.941415534971652"><ele>12.0</ele><time>2026-03-27T16:42:22Z</time></trkpt><trkpt lat="39.51334147446797" lon="15.94129286674643"><ele>12.5</ele><time>2026-03-27T16:42:23Z</time></trkpt><trkpt lat="39.51344064905965" lon="15.941167821776375"><ele>13.0</ele><time>2026-03-27T16:42:24Z</time></trkpt><trkpt lat="39.51354367076282" lon="15.941040538108556"><ele>13.0</ele><time>2026-03-27T16:42:25Z</time></trkpt><trkpt lat="39.51364635683939" lon="15.940912829853325"><ele>13.0</ele><time>2026-03-27T16:42:26Z</time></trkpt><trkpt lat="39.51374973220998" lon="15.940784574081643"><ele>13.0</ele><time>2026-03-27T16:42:27Z</time></trkpt><trkpt lat="39.51385528644992" lon="15.940654020955229"><ele>13.0</ele><time>2026-03-27T16:42:28Z</time></trkpt><trkpt lat="39.513962711240474" lon="15.940520994674989"><ele>19.0</ele><time>2026-03-27T16:42:28.999Z</time></trkpt><trkpt lat="39.514072777323584" lon="15.940384706846926"><ele>25.0</ele><time>2026-03-27T16:42:29.999Z</time></trkpt><trkpt lat="39.514179424653385" lon="15.940235549813424"><ele>31.0</ele><time>2026-03-27T16:42:30.999Z</time></trkpt><trkpt lat="39.51427744721335" lon="15.940075277330497"><ele>25.333333333333336</ele><time>2026-03-27T16:42:31.999Z</time></trkpt><trkpt lat="39.51436804102119" lon="15.939910452417775"><ele>19.666666666666668</ele><time>2026-03-27T16:42:32.999Z</time></trkpt><trkpt lat="39.51445247059145" lon="15.93973711658564"><ele>14.0</ele><time>2026-03-27T16:42:33.999Z</time></trkpt><trkpt lat="39.514532786884395" lon="15.93955939782036"><ele>17.666666666666668</ele><time>2026-03-27T16:42:34.999Z</time></trkpt><trkpt lat="39.51460990089687" lon="15.939377915676458"><ele>21.333333333333336</ele><time>2026-03-27T16:42:35.999Z</time></trkpt><trkpt lat="39.51468693704271" lon="15.939195255459499"><ele>25.0</ele><time>2026-03-27T16:42:36.999Z</time></trkpt><trkpt lat="39.514765944968495" lon="15.939006427365326"><ele>25.0</ele><time>2026-03-27T16:42:37.999Z</time></trkpt><trkpt lat="39.51484601913451" lon="15.938812282193703"><ele>25.0</ele><time>2026-03-27T16:42:38.999Z</time></trkpt><trkpt lat="39.51492573518477" lon="15.938622751068412"><ele>25.0</ele><time>2026-03-27T16:42:39.999Z</time></trkpt><trkpt lat="39.51500280456268" lon="15.93843733690038"><ele>21.333333333333336</ele><time>2026-03-27T16:42:40.999Z</time></trkpt><trkpt lat="39.5150805429504" lon="15.938255479407252"><ele>17.666666666666668</ele><time>2026-03-27T16:42:41.999Z</time></trkpt><trkpt lat="39.51516315666205" lon="15.93807857887673"><ele>14.0</ele><time>2026-03-27T16:42:42.999Z</time></trkpt><trkpt lat="39.51525728106532" lon="15.937902199358927"><ele>14.0</ele><time>2026-03-27T16:42:43.999Z</time></trkpt><trkpt lat="39.5153581971521" lon="15.937726554925645"><ele>14.0</ele><time>2026-03-27T16:42:44.999Z</time></trkpt><trkpt lat="39.5154677662633" lon="15.937552996731759"><ele>14.0</ele><time>2026-03-27T16:42:45.999Z</time></trkpt><trkpt lat="39.51558243667618" lon="15.937386362095545"><ele>15.666666666666668</ele><time>2026-03-27T16:42:46.999Z</time></trkpt><trkpt lat="39.515701261990316" lon="15.937222013528288"><ele>17.333333333333332</ele><time>2026-03-27T16:42:47.999Z</time></trkpt><trkpt lat="39.51582518385505" lon="15.937057095232756"><ele>19.0</ele><time>2026-03-27T16:42:48.999Z</time></trkpt><trkpt lat="39.51594820153549" lon="15.936890336704195"><ele>19.0</ele><time>2026-03-27T16:42:49.999Z</time></trkpt><trkpt lat="39.51607129897786" lon="15.936723244704341"><ele>19.0</ele><time>2026-03-27T16:42:50.999Z</time></trkpt><trkpt lat="39.51619674736761" lon="15.936554199782393"><ele>19.0</ele><time>2026-03-27T16:42:51.999Z</time></trkpt><trkpt lat="39.51632229844083" lon="15.936384033831214"><ele>19.0</ele><time>2026-03-27T16:42:52.999Z</time></trkpt><trkpt lat="39.516448368037615" lon="15.936211575664345"><ele>19.0</ele><time>2026-03-27T16:42:54Z</time></trkpt><trkpt lat="39.51657216409452" lon="15.93604182365979"><ele>19.0</ele><time>2026-03-27T16:42:55Z</time></trkpt><trkpt lat="39.516692058122544" lon="15.93587627003021"><ele>16.0</ele><time>2026-03-27T16:42:56Z</time></trkpt><trkpt lat="39.51680913706186" lon="15.935715983744709"><ele>13.0</ele><time>2026-03-27T16:42:57Z</time></trkpt><trkpt lat="39.51692255695962" lon="15.93556393822064"><ele>10.0</ele><time>2026-03-27T16:42:58Z</time></trkpt><trkpt lat="39.517032713874386" lon="15.935416573088911"><ele>10.5</ele><time>2026-03-27T16:42:59Z</time></trkpt><trkpt lat="39.51714013397793" lon="15.935275147724434"><ele>11.0</ele><time>2026-03-27T16:43:00Z</time></trkpt><trkpt lat="39.51724543354852" lon="15.935140507266413"><ele>11.5</ele><time>2026-03-27T16:43:01Z</time></trkpt><trkpt lat="39.51735297201202" lon="15.935010747239412"><ele>12.0</ele><time>2026-03-27T16:43:02Z</time></trkpt><trkpt lat="39.51746435931248" lon="15.934885643721982"><ele>12.0</ele><time>2026-03-27T16:43:03Z</time></trkpt><trkpt lat="39.51758016881418" lon="15.93476332152863"><ele>12.0</ele><time>2026-03-27T16:43:04Z</time></trkpt><trkpt lat="39.517700703178264" lon="15.934640114583312"><ele>12.0</ele><time>2026-03-27T16:43:05Z</time></trkpt><trkpt lat="39.517823963176525" lon="15.934521093346888"><ele>12.0</ele><time>2026-03-27T16:43:06Z</time></trkpt><trkpt lat="39.51795443324595" lon="15.934404009565108"><ele>12.0</ele><time>2026-03-27T16:43:07Z</time></trkpt><trkpt lat="39.518085642584865" lon="15.934287184636014"><ele>12.0</ele><time>2026-03-27T16:43:08Z</time></trkpt><trkpt lat="39.51821673498762" lon="15.934171425676679"><ele>12.0</ele><time>2026-03-27T16:43:09Z</time></trkpt><trkpt lat="39.51834917257109" lon="15.93405566701016"><ele>12.0</ele><time>2026-03-27T16:43:10Z</time></trkpt><trkpt lat="39.518482387241434" lon="15.933936982841816"><ele>12.0</ele><time>2026-03-27T16:43:11Z</time></trkpt><trkpt lat="39.51861843184222" lon="15.933817094699233"><ele>12.666666666666668</ele><time>2026-03-27T16:43:12Z</time></trkpt><trkpt lat="39.518757291124665" lon="15.933695691173606"><ele>13.333333333333334</ele><time>2026-03-27T16:43:13Z</time></trkpt><trkpt lat="39.51889794711236" lon="15.933571317884242"><ele>14.0</ele><time>2026-03-27T16:43:14Z</time></trkpt><trkpt lat="39.51904036776446" lon="15.933446314119383"><ele>13.333333333333334</ele><time>2026-03-27T16:43:15Z</time></trkpt><trkpt lat="39.51918480023262" lon="15.933319917254146"><ele>12.666666666666668</ele><time>2026-03-27T16:43:16Z</time></trkpt><trkpt lat="39.519331097383244" lon="15.933190861412763"><ele>12.0</ele><time>2026-03-27T16:43:17Z</time></trkpt><trkpt lat="39.51948300653877" lon="15.933064793700623"><ele>13.0</ele><time>2026-03-27T16:43:18Z</time></trkpt><trkpt lat="39.51964252005889" lon="15.932949420896756"><ele>14.0</ele><time>2026-03-27T16:43:19Z</time></trkpt><trkpt lat="39.519807081123204" lon="15.932838712676714"><ele>15.0</ele><time>2026-03-27T16:43:20Z</time></trkpt><trkpt lat="39.519976955105946" lon="15.93273410193565"><ele>15.0</ele><time>2026-03-27T16:43:21Z</time></trkpt><trkpt lat="39.5201512979668" lon="15.932636623120736"><ele>15.0</ele><time>2026-03-27T16:43:22Z</time></trkpt><trkpt lat="39.52032698622003" lon="15.93254362822025"><ele>15.0</ele><time>2026-03-27T16:43:23Z</time></trkpt><trkpt lat="39.520504185254886" lon="15.932450990716733"><ele>13.333333333333334</ele><time>2026-03-27T16:43:24Z</time></trkpt><trkpt lat="39.52068230673572" lon="15.932359227916297"><ele>11.666666666666668</ele><time>2026-03-27T16:43:25Z</time></trkpt><trkpt lat="39.52086387887217" lon="15.932265936304605"><ele>10.0</ele><time>2026-03-27T16:43:26Z</time></trkpt><trkpt lat="39.52105207877073" lon="15.932169984644766"><ele>9.0</ele><time>2026-03-27T16:43:27Z</time></trkpt><trkpt lat="39.52124563392676" lon="15.93207296878184"><ele>8.0</ele><time>2026-03-27T16:43:28Z</time></trkpt><trkpt lat="39.521441179743334" lon="15.931974123011122"><ele>7.0</ele><time>2026-03-27T16:43:29Z</time></trkpt><trkpt lat="39.52163838645502" lon="15.931873973598993"><ele>7.0</ele><time>2026-03-27T16:43:30Z</time></trkpt><trkpt lat="39.52183409583857" lon="15.931773690661592"><ele>7.0</ele><time>2026-03-27T16:43:31Z</time></trkpt><trkpt lat="39.52202964988878" lon="15.931673695409103"><ele>7.0</ele><time>2026-03-27T16:43:32Z</time></trkpt><trkpt lat="39.522222328535456" lon="15.931570935046276"><ele>8.666666666666668</ele><time>2026-03-27T16:43:33Z</time></trkpt><trkpt lat="39.52241196040924" lon="15.93145999276639"><ele>10.333333333333334</ele><time>2026-03-27T16:43:34Z</time></trkpt><trkpt lat="39.52259781501738" lon="15.93134252390356"><ele>12.0</ele><time>2026-03-27T16:43:35Z</time></trkpt><trkpt lat="39.52277457751311" lon="15.931219454935794"><ele>11.333333333333334</ele><time>2026-03-27T16:43:36Z</time></trkpt><trkpt lat="39.522942522784575" lon="15.931098767991983"><ele>10.666666666666668</ele><time>2026-03-27T16:43:37Z</time></trkpt><trkpt lat="39.52310651847216" lon="15.930978924064426"><ele>10.0</ele><time>2026-03-27T16:43:38Z</time></trkpt><trkpt lat="39.52326541116833" lon="15.930864035656958"><ele>10.0</ele><time>2026-03-27T16:43:39Z</time></trkpt><trkpt lat="39.52342001606782" lon="15.930751850712696"><ele>10.0</ele><time>2026-03-27T16:43:40Z</time></trkpt><trkpt lat="39.52356989706306" lon="15.930637864102085"><ele>10.0</ele><time>2026-03-27T16:43:41Z</time></trkpt><trkpt lat="39.523716265986536" lon="15.93051974929065"><ele>11.0</ele><time>2026-03-27T16:43:42Z</time></trkpt><trkpt lat="39.523861112123825" lon="15.930397723419652"><ele>12.0</ele><time>2026-03-27T16:43:43Z</time></trkpt><trkpt lat="39.524005663657775" lon="15.93027454363726"><ele>13.0</ele><time>2026-03-27T16:43:44Z</time></trkpt><trkpt lat="39.52414675684065" lon="15.930152124129249"><ele>13.333333333333332</ele><time>2026-03-27T16:43:45Z</time></trkpt><trkpt lat="39.52428959378195" lon="15.930028510396744"><ele>13.666666666666668</ele><time>2026-03-27T16:43:46Z</time></trkpt><trkpt lat="39.524429485724326" lon="15.929905357538706"><ele>14.0</ele><time>2026-03-27T16:43:47Z</time></trkpt><trkpt lat="39.52456726692212" lon="15.929783117380014"><ele>14.0</ele><time>2026-03-27T16:43:48Z</time></trkpt><trkpt lat="39.52470134737426" lon="15.929662945572629"><ele>14.0</ele><time>2026-03-27T16:43:49Z</time></trkpt><trkpt lat="39.52483295878118" lon="15.929545233348104"><ele>14.0</ele><time>2026-03-27T16:43:50Z</time></trkpt><trkpt lat="39.524968362930025" lon="15.929419368172846"><ele>14.0</ele><time>2026-03-27T16:43:51Z</time></trkpt><trkpt lat="39.525112006205" lon="15.929292284485497"><ele>14.0</ele><time>2026-03-27T16:43:52Z</time></trkpt><trkpt lat="39.5252573942834" lon="15.929172217428578"><ele>14.0</ele><time>2026-03-27T16:43:53Z</time></trkpt><trkpt lat="39.52539940207666" lon="15.929056063967836"><ele>13.0</ele><time>2026-03-27T16:43:54Z</time></trkpt><trkpt lat="39.525534960222416" lon="15.928940746141778"><ele>12.0</ele><time>2026-03-27T16:43:55Z</time></trkpt><trkpt lat="39.52566437727345" lon="15.928827380869286"><ele>11.0</ele><time>2026-03-27T16:43:56Z</time></trkpt><trkpt lat="39.525791447604824" lon="15.928715564994812"><ele>11.0</ele><time>2026-03-27T16:43:57Z</time></trkpt><trkpt lat="39.52591641050159" lon="15.928604318582387"><ele>11.0</ele><time>2026-03-27T16:43:58Z</time></trkpt><trkpt lat="39.52603912968331" lon="15.928496399580187"><ele>11.0</ele><time>2026-03-27T16:43:59Z</time></trkpt><trkpt lat="39.526165179294665" lon="15.928385484897973"><ele>11.75</ele><time>2026-03-27T16:44:00Z</time></trkpt><trkpt lat="39.5262892524996" lon="15.928274270207318"><ele>12.5</ele><time>2026-03-27T16:44:01Z</time></trkpt><trkpt lat="39.52641247271203" lon="15.928164705951692"><ele>13.25</ele><time>2026-03-27T16:44:02Z</time></trkpt><trkpt lat="39.52653337008616" lon="15.928057019275622"><ele>14.0</ele><time>2026-03-27T16:44:03Z</time></trkpt><trkpt lat="39.52665239770774" lon="15.927953426230346"><ele>14.0</ele><time>2026-03-27T16:44:04Z</time></trkpt><trkpt lat="39.52676880236214" lon="15.927852154547637"><ele>14.0</ele><time>2026-03-27T16:44:05Z</time></trkpt><trkpt lat="39.526883559747304" lon="15.927752218454483"><ele>14.0</ele><time>2026-03-27T16:44:06Z</time></trkpt><trkpt lat="39.52699686424152" lon="15.927655675861411"><ele>14.0</ele><time>2026-03-27T16:44:07Z</time></trkpt><trkpt lat="39.527105478821525" lon="15.927561548066343"><ele>14.25</ele><time>2026-03-27T16:44:08Z</time></trkpt><trkpt lat="39.52721085887456" lon="15.92747103986606"><ele>14.5</ele><time>2026-03-27T16:44:09Z</time></trkpt><trkpt lat="39.52731227368949" lon="15.927384743428847"><ele>14.75</ele><time>2026-03-27T16:44:10Z</time></trkpt><trkpt lat="39.52740992617503" lon="15.92730236927041"><ele>15.0</ele><time>2026-03-27T16:44:11Z</time></trkpt><trkpt lat="39.52750309826156" lon="15.927223122968147"><ele>15.0</ele><time>2026-03-27T16:44:12Z</time></trkpt><trkpt lat="39.52759498296804" lon="15.927143881494993"><ele>15.0</ele><time>2026-03-27T16:44:13Z</time></trkpt><trkpt lat="39.52768842960393" lon="15.927063564439246"><ele>15.0</ele><time>2026-03-27T16:44:14Z</time></trkpt><trkpt lat="39.52778298585064" lon="15.926980561132092"><ele>15.0</ele><time>2026-03-27T16:44:15Z</time></trkpt><trkpt lat="39.52788194699915" lon="15.926897046097238"><ele>16.75</ele><time>2026-03-27T16:44:16Z</time></trkpt><trkpt lat="39.52798364944416" lon="15.926810915185014"><ele>18.5</ele><time>2026-03-27T16:44:17Z</time></trkpt><trkpt lat="39.52808405092842" lon="15.92672563646648"><ele>20.25</ele><time>2026-03-27T16:44:18Z</time></trkpt><trkpt lat="39.528182471481195" lon="15.92664019822066"><ele>22.0</ele><time>2026-03-27T16:44:19Z</time></trkpt><trkpt lat="39.52828002590741" lon="15.926554028660908"><ele>22.0</ele><time>2026-03-27T16:44:20Z</time></trkpt><trkpt lat="39.528376978065715" lon="15.926467846614534"><ele>22.0</ele><time>2026-03-27T16:44:21Z</time></trkpt><trkpt lat="39.528471891848184" lon="15.926380367779425"><ele>22.0</ele><time>2026-03-27T16:44:22Z</time></trkpt><trkpt lat="39.52856811261028" lon="15.926285761007962"><ele>22.0</ele><time>2026-03-27T16:44:23Z</time></trkpt><trkpt lat="39.52866559035462" lon="15.9261877774588"><ele>26.5</ele><time>2026-03-27T16:44:24Z</time></trkpt><trkpt lat="39.52875939120773" lon="15.92608560632138"><ele>31.0</ele><time>2026-03-27T16:44:25Z</time></trkpt><trkpt lat="39.528851630190985" lon="15.925981591196129"><ele>35.5</ele><time>2026-03-27T16:44:26Z</time></trkpt><trkpt lat="39.52894026634633" lon="15.925869790733945"><ele>40.0</ele><time>2026-03-27T16:44:27Z</time></trkpt><trkpt lat="39.52902374801393" lon="15.925753992207017"><ele>40.0</ele><time>2026-03-27T16:44:28Z</time></trkpt><trkpt lat="39.52910185837647" lon="15.925634061448203"><ele>40.0</ele><time>2026-03-27T16:44:29Z</time></trkpt><trkpt lat="39.52917669800683" lon="15.925507932252767"><ele>40.0</ele><time>2026-03-27T16:44:30Z</time></trkpt><trkpt lat="39.529248341115256" lon="15.925378088832197"><ele>40.0</ele><time>2026-03-27T16:44:31Z</time></trkpt><trkpt lat="39.52931379650426" lon="15.925245035076518"><ele>40.0</ele><time>2026-03-27T16:44:32Z</time></trkpt><trkpt lat="39.52937542661825" lon="15.925107379657724"><ele>40.0</ele><time>2026-03-27T16:44:33Z</time></trkpt><trkpt lat="39.52943690484518" lon="15.924959962546001"><ele>40.0</ele><time>2026-03-27T16:44:34Z</time></trkpt><trkpt lat="39.5294956756917" lon="15.92480106439733"><ele>40.0</ele><time>2026-03-27T16:44:34.999Z</time></trkpt><trkpt lat="39.529546679096015" lon="15.924638077661491"><ele>43.25</ele><time>2026-03-27T16:44:35.999Z</time></trkpt><trkpt lat="39.52959489653394" lon="15.92446738816856"><ele>46.5</ele><time>2026-03-27T16:44:36.999Z</time></trkpt><trkpt lat="39.52964279618095" lon="15.924297128319697"><ele>49.75</ele><time>2026-03-27T16:44:37.999Z</time></trkpt><trkpt lat="39.529688906573696" lon="15.92413273401787"><ele>53.0</ele><time>2026-03-27T16:44:38.999Z</time></trkpt><trkpt lat="39.529734378398025" lon="15.92397630175664"><ele>53.0</ele><time>2026-03-27T16:44:39.999Z</time></trkpt><trkpt lat="39.52977866870959" lon="15.923829736856245"><ele>53.0</ele><time>2026-03-27T16:44:40.999Z</time></trkpt><trkpt lat="39.529821700304865" lon="15.923689467011501"><ele>53.0</ele><time>2026-03-27T16:44:41.999Z</time></trkpt><trkpt lat="39.52986324773581" lon="15.923552084533632"><ele>53.0</ele><time>2026-03-27T16:44:42.999Z</time></trkpt><trkpt lat="39.529904185226826" lon="15.923418378524527"><ele>51.0</ele><time>2026-03-27T16:44:43.999Z</time></trkpt><trkpt lat="39.52994421495367" lon="15.923289339987315"><ele>49.0</ele><time>2026-03-27T16:44:44.999Z</time></trkpt><trkpt lat="39.52998601968856" lon="15.923162210466316"><ele>47.0</ele><time>2026-03-27T16:44:45.999Z</time></trkpt><trkpt lat="39.53002980477263" lon="15.923033577467262"><ele>45.0</ele><time>2026-03-27T16:44:46.999Z</time></trkpt><trkpt lat="39.530076576065156" lon="15.92290142468554"><ele>43.0</ele><time>2026-03-27T16:44:47.999Z</time></trkpt><trkpt lat="39.53012728001802" lon="15.922769773802003"><ele>43.0</ele><time>2026-03-27T16:44:48.999Z</time></trkpt><trkpt lat="39.53018337223318" lon="15.922641885602195"><ele>43.0</ele><time>2026-03-27T16:44:49.999Z</time></trkpt><trkpt lat="39.53025492970191" lon="15.922526029569534"><ele>43.0</ele><time>2026-03-27T16:44:50.999Z</time></trkpt><trkpt lat="39.53033176439884" lon="15.922412781711367"><ele>43.0</ele><time>2026-03-27T16:44:51.999Z</time></trkpt><trkpt lat="39.53040646555253" lon="15.922291261182792"><ele>49.25</ele><time>2026-03-27T16:44:52.999Z</time></trkpt><trkpt lat="39.53047614029803" lon="15.922163322240383"><ele>55.5</ele><time>2026-03-27T16:44:53.999Z</time></trkpt><trkpt lat="39.530548585155096" lon="15.922031943831028"><ele>61.75</ele><time>2026-03-27T16:44:54.999Z</time></trkpt><trkpt lat="39.53061937704553" lon="15.921894044279858"><ele>68.0</ele><time>2026-03-27T16:44:55.999Z</time></trkpt><trkpt lat="39.53068704163639" lon="15.921751545540571"><ele>66.0</ele><time>2026-03-27T16:44:56.999Z</time></trkpt><trkpt lat="39.530751592406034" lon="15.921615288930097"><ele>64.0</ele><time>2026-03-27T16:44:57.999Z</time></trkpt><trkpt lat="39.53081635455826" lon="15.92148984497489"><ele>62.0</ele><time>2026-03-27T16:44:58.999Z</time></trkpt><trkpt lat="39.53087802844288" lon="15.92136946497051"><ele>60.0</ele><time>2026-03-27T16:44:59.999Z</time></trkpt><trkpt lat="39.53093454339542" lon="15.921256648340671"><ele>60.0</ele><time>2026-03-27T16:45:00.999Z</time></trkpt><trkpt lat="39.530986298895506" lon="15.921145683979143"><ele>60.0</ele><time>2026-03-27T16:45:01.999Z</time></trkpt><trkpt lat="39.53102104803182" lon="15.921030398253597"><ele>60.0</ele><time>2026-03-27T16:45:02.999Z</time></trkpt><trkpt lat="39.53103607316059" lon="15.92091418027883"><ele>60.0</ele><time>2026-03-27T16:45:03.999Z</time></trkpt><trkpt lat="39.531043640969415" lon="15.920807643982911"><ele>60.0</ele><time>2026-03-27T16:45:04.999Z</time></trkpt><trkpt lat="39.53105019795299" lon="15.920703407686831"><ele>59.8</ele><time>2026-03-27T16:45:05.999Z</time></trkpt><trkpt lat="39.53105634583777" lon="15.92059498766591"><ele>59.6</ele><time>2026-03-27T16:45:06.999Z</time></trkpt><trkpt lat="39.5310631025523" lon="15.92048020069888"><ele>59.400000000000006</ele><time>2026-03-27T16:45:07.999Z</time></trkpt><trkpt lat="39.531090977237945" lon="15.920361695636412"><ele>59.2</ele><time>2026-03-27T16:45:08.999Z</time></trkpt><trkpt lat="39.531108259905956" lon="15.920231144071169"><ele>59.0</ele><time>2026-03-27T16:45:09.999Z</time></trkpt><trkpt lat="39.53112577639108" lon="15.920098826230793"><ele>60.0</ele><time>2026-03-27T16:45:10.999Z</time></trkpt><trkpt lat="39.531141111242846" lon="15.919968381116506"><ele>61.00000000000001</ele><time>2026-03-27T16:45:11.999Z</time></trkpt><trkpt lat="39.531136891179564" lon="15.91984731665419"><ele>62.00000000000001</ele><time>2026-03-27T16:45:12.999Z</time></trkpt><trkpt lat="39.53114821434475" lon="15.91972871017607"><ele>63.0</ele><time>2026-03-27T16:45:13.999Z</time></trkpt><trkpt lat="39.53117740931422" lon="15.91960061082126"><ele>64.0</ele><time>2026-03-27T16:45:14.999Z</time></trkpt><trkpt lat="39.53118901727232" lon="15.919479122251648"><ele>64.0</ele><time>2026-03-27T16:45:15.999Z</time></trkpt><trkpt lat="39.53120027712785" lon="15.919361187170075"><ele>64.0</ele><time>2026-03-27T16:45:16.999Z</time></trkpt><trkpt lat="39.531186431888536" lon="15.919244121915167"><ele>64.0</ele><time>2026-03-27T16:45:17.998Z</time></trkpt><trkpt lat="39.531217300203764" lon="15.919132363586229"><ele>64.0</ele><time>2026-03-27T16:45:18.998Z</time></trkpt><trkpt lat="39.5312293987035" lon="15.9190154375785"><ele>64.0</ele><time>2026-03-27T16:45:19.998Z</time></trkpt><trkpt lat="39.53124279827561" lon="15.918896037091557"><ele>63.83333333333333</ele><time>2026-03-27T16:45:20.998Z</time></trkpt><trkpt lat="39.531255807484236" lon="15.91878126233344"><ele>63.666666666666664</ele><time>2026-03-27T16:45:21.998Z</time></trkpt><trkpt lat="39.531267005733284" lon="15.918674968270892"><ele>63.5</ele><time>2026-03-27T16:45:22.998Z</time></trkpt><trkpt lat="39.531276144934374" lon="15.918579999240265"><ele>63.33333333333333</ele><time>2026-03-27T16:45:23.998Z</time></trkpt><trkpt lat="39.53128950223323" lon="15.918488962122733"><ele>63.166666666666664</ele><time>2026-03-27T16:45:24.998Z</time></trkpt><trkpt lat="39.531304991102154" lon="15.918401791299088"><ele>63.0</ele><time>2026-03-27T16:45:25.998Z</time></trkpt><trkpt lat="39.531325017456616" lon="15.9183153038557"><ele>59.0</ele><time>2026-03-27T16:45:26.998Z</time></trkpt><trkpt lat="39.531346729197296" lon="15.91823154420675"><ele>59.0</ele><time>2026-03-27T16:45:27.998Z</time></trkpt><trkpt lat="39.531377127854476" lon="15.918134686060103"><ele>59.0</ele><time>2026-03-27T16:45:29.998Z</time></trkpt></trkseg></trk></gpx>